<?xml version="1.0" encoding="UTF-8" ?>
		<gpx
		 version="1.0"
		 xmlns:xsi="http://www.w3.org/2001/XMLSchema-instance"
		 xmlns="http://www.topografix.com/GPX/1/0"
		 xsi:schemaLocation="http://www.topografix.com/GPX/1/0 http://www.topografix.com/GPX/1/0/gpx.xsd"
		 creator="http://www.openrunner.com">
			<trk>
			    <name>--Saint-Maurice-sur-Moselle-- OR-5361313:Boucle B.10</name>
			    <trkseg>
	
			<trkpt lat="47.85535" lon="6.81969">
			 <ele>550</ele>
			<time>2015-10-12T15:42:12Z</time>
			</trkpt>
		
			<trkpt lat="47.85529" lon="6.81987">
			 <ele>551</ele>
			<time>2015-10-12T15:44:12Z</time>
			</trkpt>
		
			<trkpt lat="47.85529" lon="6.81987">
			 <ele>551</ele>
			<time>2015-10-12T15:46:12Z</time>
			</trkpt>
		
			<trkpt lat="47.85528" lon="6.8199">
			 <ele>551</ele>
			<time>2015-10-12T15:48:12Z</time>
			</trkpt>
		
			<trkpt lat="47.85527" lon="6.81999">
			 <ele>551</ele>
			<time>2015-10-12T15:50:12Z</time>
			</trkpt>
		
			<trkpt lat="47.85527" lon="6.8201">
			 <ele>552</ele>
			<time>2015-10-12T15:52:12Z</time>
			</trkpt>
		
			<trkpt lat="47.85528" lon="6.82031">
			 <ele>552</ele>
			<time>2015-10-12T15:54:12Z</time>
			</trkpt>
		
			<trkpt lat="47.85527" lon="6.82094">
			 <ele>554</ele>
			<time>2015-10-12T15:56:12Z</time>
			</trkpt>
		
			<trkpt lat="47.85528" lon="6.82106">
			 <ele>555</ele>
			<time>2015-10-12T15:58:12Z</time>
			</trkpt>
		
			<trkpt lat="47.85529" lon="6.82118">
			 <ele>555</ele>
			<time>2015-10-12T16:00:12Z</time>
			</trkpt>
		
			<trkpt lat="47.85531" lon="6.8213">
			 <ele>556</ele>
			<time>2015-10-12T16:02:12Z</time>
			</trkpt>
		
			<trkpt lat="47.85535" lon="6.82149">
			 <ele>556</ele>
			<time>2015-10-12T16:04:12Z</time>
			</trkpt>
		
			<trkpt lat="47.85537" lon="6.82159">
			 <ele>556</ele>
			<time>2015-10-12T16:06:12Z</time>
			</trkpt>
		
			<trkpt lat="47.85538" lon="6.82169">
			 <ele>557</ele>
			<time>2015-10-12T16:08:12Z</time>
			</trkpt>
		
			<trkpt lat="47.85539" lon="6.82177">
			 <ele>558</ele>
			<time>2015-10-12T16:10:12Z</time>
			</trkpt>
		
			<trkpt lat="47.85539" lon="6.82185">
			 <ele>559</ele>
			<time>2015-10-12T16:12:12Z</time>
			</trkpt>
		
			<trkpt lat="47.85539" lon="6.82191">
			 <ele>559</ele>
			<time>2015-10-12T16:14:12Z</time>
			</trkpt>
		
			<trkpt lat="47.85539" lon="6.82196">
			 <ele>560</ele>
			<time>2015-10-12T16:16:12Z</time>
			</trkpt>
		
			<trkpt lat="47.85537" lon="6.82204">
			 <ele>561</ele>
			<time>2015-10-12T16:18:12Z</time>
			</trkpt>
		
			<trkpt lat="47.85536" lon="6.82215">
			 <ele>563</ele>
			<time>2015-10-12T16:20:12Z</time>
			</trkpt>
		
			<trkpt lat="47.85534" lon="6.82228">
			 <ele>564</ele>
			<time>2015-10-12T16:22:12Z</time>
			</trkpt>
		
			<trkpt lat="47.85533" lon="6.82238">
			 <ele>566</ele>
			<time>2015-10-12T16:24:12Z</time>
			</trkpt>
		
			<trkpt lat="47.85533" lon="6.82246">
			 <ele>567</ele>
			<time>2015-10-12T16:26:12Z</time>
			</trkpt>
		
			<trkpt lat="47.85534" lon="6.82249">
			 <ele>567</ele>
			<time>2015-10-12T16:28:12Z</time>
			</trkpt>
		
			<trkpt lat="47.85535" lon="6.82254">
			 <ele>567</ele>
			<time>2015-10-12T16:30:12Z</time>
			</trkpt>
		
			<trkpt lat="47.85536" lon="6.82257">
			 <ele>568</ele>
			<time>2015-10-12T16:32:12Z</time>
			</trkpt>
		
			<trkpt lat="47.85538" lon="6.8226">
			 <ele>568</ele>
			<time>2015-10-12T16:34:12Z</time>
			</trkpt>
		
			<trkpt lat="47.85539" lon="6.82263">
			 <ele>568</ele>
			<time>2015-10-12T16:36:12Z</time>
			</trkpt>
		
			<trkpt lat="47.85552" lon="6.82278">
			 <ele>569</ele>
			<time>2015-10-12T16:38:12Z</time>
			</trkpt>
		
			<trkpt lat="47.85618" lon="6.82342">
			 <ele>569</ele>
			<time>2015-10-12T16:40:12Z</time>
			</trkpt>
		
			<trkpt lat="47.8562" lon="6.82344">
			 <ele>570</ele>
			<time>2015-10-12T16:42:12Z</time>
			</trkpt>
		
			<trkpt lat="47.85661" lon="6.8239">
			 <ele>571</ele>
			<time>2015-10-12T16:44:12Z</time>
			</trkpt>
		
			<trkpt lat="47.85665" lon="6.82396">
			 <ele>571</ele>
			<time>2015-10-12T16:46:12Z</time>
			</trkpt>
		
			<trkpt lat="47.85668" lon="6.82401">
			 <ele>572</ele>
			<time>2015-10-12T16:48:12Z</time>
			</trkpt>
		
			<trkpt lat="47.85672" lon="6.82409">
			 <ele>572</ele>
			<time>2015-10-12T16:50:12Z</time>
			</trkpt>
		
			<trkpt lat="47.85675" lon="6.82419">
			 <ele>573</ele>
			<time>2015-10-12T16:52:12Z</time>
			</trkpt>
		
			<trkpt lat="47.85677" lon="6.82429">
			 <ele>573</ele>
			<time>2015-10-12T16:54:12Z</time>
			</trkpt>
		
			<trkpt lat="47.8568" lon="6.82445">
			 <ele>575</ele>
			<time>2015-10-12T16:56:12Z</time>
			</trkpt>
		
			<trkpt lat="47.85683" lon="6.82457">
			 <ele>575</ele>
			<time>2015-10-12T16:58:12Z</time>
			</trkpt>
		
			<trkpt lat="47.85685" lon="6.8247">
			 <ele>576</ele>
			<time>2015-10-12T17:00:12Z</time>
			</trkpt>
		
			<trkpt lat="47.85686" lon="6.8248">
			 <ele>577</ele>
			<time>2015-10-12T17:02:12Z</time>
			</trkpt>
		
			<trkpt lat="47.85688" lon="6.8249">
			 <ele>578</ele>
			<time>2015-10-12T17:04:12Z</time>
			</trkpt>
		
			<trkpt lat="47.85688" lon="6.82497">
			 <ele>579</ele>
			<time>2015-10-12T17:06:12Z</time>
			</trkpt>
		
			<trkpt lat="47.85688" lon="6.82502">
			 <ele>579</ele>
			<time>2015-10-12T17:08:12Z</time>
			</trkpt>
		
			<trkpt lat="47.85688" lon="6.82509">
			 <ele>579</ele>
			<time>2015-10-12T17:10:12Z</time>
			</trkpt>
		
			<trkpt lat="47.85687" lon="6.82513">
			 <ele>579</ele>
			<time>2015-10-12T17:12:12Z</time>
			</trkpt>
		
			<trkpt lat="47.85686" lon="6.82517">
			 <ele>580</ele>
			<time>2015-10-12T17:14:12Z</time>
			</trkpt>
		
			<trkpt lat="47.85685" lon="6.82519">
			 <ele>580</ele>
			<time>2015-10-12T17:16:12Z</time>
			</trkpt>
		
			<trkpt lat="47.85684" lon="6.82521">
			 <ele>580</ele>
			<time>2015-10-12T17:18:12Z</time>
			</trkpt>
		
			<trkpt lat="47.85683" lon="6.82522">
			 <ele>580</ele>
			<time>2015-10-12T17:20:12Z</time>
			</trkpt>
		
			<trkpt lat="47.85682" lon="6.82524">
			 <ele>581</ele>
			<time>2015-10-12T17:22:12Z</time>
			</trkpt>
		
			<trkpt lat="47.85681" lon="6.82524">
			 <ele>581</ele>
			<time>2015-10-12T17:24:12Z</time>
			</trkpt>
		
			<trkpt lat="47.8568" lon="6.82525">
			 <ele>581</ele>
			<time>2015-10-12T17:26:12Z</time>
			</trkpt>
		
			<trkpt lat="47.85679" lon="6.82525">
			 <ele>581</ele>
			<time>2015-10-12T17:28:12Z</time>
			</trkpt>
		
			<trkpt lat="47.85675" lon="6.82525">
			 <ele>582</ele>
			<time>2015-10-12T17:30:12Z</time>
			</trkpt>
		
			<trkpt lat="47.85674" lon="6.82524">
			 <ele>582</ele>
			<time>2015-10-12T17:32:12Z</time>
			</trkpt>
		
			<trkpt lat="47.85672" lon="6.82523">
			 <ele>582</ele>
			<time>2015-10-12T17:34:12Z</time>
			</trkpt>
		
			<trkpt lat="47.85671" lon="6.82522">
			 <ele>582</ele>
			<time>2015-10-12T17:36:12Z</time>
			</trkpt>
		
			<trkpt lat="47.85669" lon="6.8252">
			 <ele>583</ele>
			<time>2015-10-12T17:38:12Z</time>
			</trkpt>
		
			<trkpt lat="47.85651" lon="6.82482">
			 <ele>583</ele>
			<time>2015-10-12T17:40:12Z</time>
			</trkpt>
		
			<trkpt lat="47.85644" lon="6.82472">
			 <ele>583</ele>
			<time>2015-10-12T17:42:12Z</time>
			</trkpt>
		
			<trkpt lat="47.85641" lon="6.82469">
			 <ele>583</ele>
			<time>2015-10-12T17:44:12Z</time>
			</trkpt>
		
			<trkpt lat="47.85638" lon="6.82465">
			 <ele>583</ele>
			<time>2015-10-12T17:46:12Z</time>
			</trkpt>
		
			<trkpt lat="47.85604" lon="6.82441">
			 <ele>585</ele>
			<time>2015-10-12T17:48:12Z</time>
			</trkpt>
		
			<trkpt lat="47.856" lon="6.82438">
			 <ele>585</ele>
			<time>2015-10-12T17:50:12Z</time>
			</trkpt>
		
			<trkpt lat="47.85579" lon="6.82425">
			 <ele>586</ele>
			<time>2015-10-12T17:52:12Z</time>
			</trkpt>
		
			<trkpt lat="47.85562" lon="6.82418">
			 <ele>588</ele>
			<time>2015-10-12T17:54:12Z</time>
			</trkpt>
		
			<trkpt lat="47.85548" lon="6.82412">
			 <ele>589</ele>
			<time>2015-10-12T17:56:12Z</time>
			</trkpt>
		
			<trkpt lat="47.8554" lon="6.8241">
			 <ele>590</ele>
			<time>2015-10-12T17:58:12Z</time>
			</trkpt>
		
			<trkpt lat="47.85535" lon="6.82409">
			 <ele>591</ele>
			<time>2015-10-12T18:00:12Z</time>
			</trkpt>
		
			<trkpt lat="47.85531" lon="6.8241">
			 <ele>592</ele>
			<time>2015-10-12T18:02:12Z</time>
			</trkpt>
		
			<trkpt lat="47.85526" lon="6.82412">
			 <ele>593</ele>
			<time>2015-10-12T18:04:12Z</time>
			</trkpt>
		
			<trkpt lat="47.85523" lon="6.82417">
			 <ele>594</ele>
			<time>2015-10-12T18:06:12Z</time>
			</trkpt>
		
			<trkpt lat="47.85522" lon="6.82422">
			 <ele>595</ele>
			<time>2015-10-12T18:08:12Z</time>
			</trkpt>
		
			<trkpt lat="47.85522" lon="6.82426">
			 <ele>596</ele>
			<time>2015-10-12T18:10:12Z</time>
			</trkpt>
		
			<trkpt lat="47.85521" lon="6.82428">
			 <ele>596</ele>
			<time>2015-10-12T18:12:12Z</time>
			</trkpt>
		
			<trkpt lat="47.85521" lon="6.82429">
			 <ele>597</ele>
			<time>2015-10-12T18:14:12Z</time>
			</trkpt>
		
			<trkpt lat="47.85522" lon="6.8243">
			 <ele>597</ele>
			<time>2015-10-12T18:16:12Z</time>
			</trkpt>
		
			<trkpt lat="47.85522" lon="6.82432">
			 <ele>597</ele>
			<time>2015-10-12T18:18:12Z</time>
			</trkpt>
		
			<trkpt lat="47.85524" lon="6.82436">
			 <ele>597</ele>
			<time>2015-10-12T18:20:12Z</time>
			</trkpt>
		
			<trkpt lat="47.85527" lon="6.8244">
			 <ele>597</ele>
			<time>2015-10-12T18:22:12Z</time>
			</trkpt>
		
			<trkpt lat="47.85533" lon="6.82448">
			 <ele>598</ele>
			<time>2015-10-12T18:24:12Z</time>
			</trkpt>
		
			<trkpt lat="47.85541" lon="6.82458">
			 <ele>598</ele>
			<time>2015-10-12T18:26:12Z</time>
			</trkpt>
		
			<trkpt lat="47.85546" lon="6.82466">
			 <ele>598</ele>
			<time>2015-10-12T18:28:12Z</time>
			</trkpt>
		
			<trkpt lat="47.85551" lon="6.82477">
			 <ele>599</ele>
			<time>2015-10-12T18:30:12Z</time>
			</trkpt>
		
			<trkpt lat="47.85557" lon="6.82489">
			 <ele>599</ele>
			<time>2015-10-12T18:32:12Z</time>
			</trkpt>
		
			<trkpt lat="47.85561" lon="6.82502">
			 <ele>600</ele>
			<time>2015-10-12T18:34:12Z</time>
			</trkpt>
		
			<trkpt lat="47.85564" lon="6.82512">
			 <ele>600</ele>
			<time>2015-10-12T18:36:12Z</time>
			</trkpt>
		
			<trkpt lat="47.85571" lon="6.82538">
			 <ele>601</ele>
			<time>2015-10-12T18:38:12Z</time>
			</trkpt>
		
			<trkpt lat="47.85575" lon="6.82554">
			 <ele>601</ele>
			<time>2015-10-12T18:40:12Z</time>
			</trkpt>
		
			<trkpt lat="47.85577" lon="6.82565">
			 <ele>601</ele>
			<time>2015-10-12T18:42:12Z</time>
			</trkpt>
		
			<trkpt lat="47.85576" lon="6.82573">
			 <ele>602</ele>
			<time>2015-10-12T18:44:12Z</time>
			</trkpt>
		
			<trkpt lat="47.85576" lon="6.82575">
			 <ele>602</ele>
			<time>2015-10-12T18:46:12Z</time>
			</trkpt>
		
			<trkpt lat="47.85575" lon="6.82577">
			 <ele>603</ele>
			<time>2015-10-12T18:48:12Z</time>
			</trkpt>
		
			<trkpt lat="47.85574" lon="6.82579">
			 <ele>603</ele>
			<time>2015-10-12T18:50:12Z</time>
			</trkpt>
		
			<trkpt lat="47.85574" lon="6.8258">
			 <ele>603</ele>
			<time>2015-10-12T18:52:12Z</time>
			</trkpt>
		
			<trkpt lat="47.85573" lon="6.82581">
			 <ele>603</ele>
			<time>2015-10-12T18:54:12Z</time>
			</trkpt>
		
			<trkpt lat="47.85571" lon="6.82581">
			 <ele>604</ele>
			<time>2015-10-12T18:56:12Z</time>
			</trkpt>
		
			<trkpt lat="47.85567" lon="6.82582">
			 <ele>605</ele>
			<time>2015-10-12T18:58:12Z</time>
			</trkpt>
		
			<trkpt lat="47.85565" lon="6.82582">
			 <ele>606</ele>
			<time>2015-10-12T19:00:12Z</time>
			</trkpt>
		
			<trkpt lat="47.85564" lon="6.82581">
			 <ele>606</ele>
			<time>2015-10-12T19:02:12Z</time>
			</trkpt>
		
			<trkpt lat="47.85563" lon="6.82581">
			 <ele>606</ele>
			<time>2015-10-12T19:04:12Z</time>
			</trkpt>
		
			<trkpt lat="47.85562" lon="6.8258">
			 <ele>606</ele>
			<time>2015-10-12T19:06:12Z</time>
			</trkpt>
		
			<trkpt lat="47.85561" lon="6.82579">
			 <ele>606</ele>
			<time>2015-10-12T19:08:12Z</time>
			</trkpt>
		
			<trkpt lat="47.85561" lon="6.82578">
			 <ele>606</ele>
			<time>2015-10-12T19:10:12Z</time>
			</trkpt>
		
			<trkpt lat="47.85552" lon="6.82559">
			 <ele>607</ele>
			<time>2015-10-12T19:12:12Z</time>
			</trkpt>
		
			<trkpt lat="47.85539" lon="6.82531">
			 <ele>607</ele>
			<time>2015-10-12T19:14:12Z</time>
			</trkpt>
		
			<trkpt lat="47.85523" lon="6.82498">
			 <ele>608</ele>
			<time>2015-10-12T19:16:12Z</time>
			</trkpt>
		
			<trkpt lat="47.85519" lon="6.82493">
			 <ele>608</ele>
			<time>2015-10-12T19:18:12Z</time>
			</trkpt>
		
			<trkpt lat="47.85515" lon="6.82489">
			 <ele>608</ele>
			<time>2015-10-12T19:20:12Z</time>
			</trkpt>
		
			<trkpt lat="47.85514" lon="6.82488">
			 <ele>608</ele>
			<time>2015-10-12T19:22:12Z</time>
			</trkpt>
		
			<trkpt lat="47.85511" lon="6.82486">
			 <ele>608</ele>
			<time>2015-10-12T19:24:12Z</time>
			</trkpt>
		
			<trkpt lat="47.85509" lon="6.82486">
			 <ele>609</ele>
			<time>2015-10-12T19:26:12Z</time>
			</trkpt>
		
			<trkpt lat="47.85506" lon="6.82486">
			 <ele>609</ele>
			<time>2015-10-12T19:28:12Z</time>
			</trkpt>
		
			<trkpt lat="47.85505" lon="6.82486">
			 <ele>609</ele>
			<time>2015-10-12T19:30:12Z</time>
			</trkpt>
		
			<trkpt lat="47.85503" lon="6.82487">
			 <ele>610</ele>
			<time>2015-10-12T19:32:12Z</time>
			</trkpt>
		
			<trkpt lat="47.85501" lon="6.82489">
			 <ele>611</ele>
			<time>2015-10-12T19:34:12Z</time>
			</trkpt>
		
			<trkpt lat="47.855" lon="6.8249">
			 <ele>611</ele>
			<time>2015-10-12T19:36:12Z</time>
			</trkpt>
		
			<trkpt lat="47.85499" lon="6.82491">
			 <ele>612</ele>
			<time>2015-10-12T19:38:12Z</time>
			</trkpt>
		
			<trkpt lat="47.85498" lon="6.82495">
			 <ele>613</ele>
			<time>2015-10-12T19:40:12Z</time>
			</trkpt>
		
			<trkpt lat="47.85497" lon="6.825">
			 <ele>614</ele>
			<time>2015-10-12T19:42:12Z</time>
			</trkpt>
		
			<trkpt lat="47.85496" lon="6.82503">
			 <ele>614</ele>
			<time>2015-10-12T19:44:12Z</time>
			</trkpt>
		
			<trkpt lat="47.85496" lon="6.82507">
			 <ele>615</ele>
			<time>2015-10-12T19:46:12Z</time>
			</trkpt>
		
			<trkpt lat="47.85497" lon="6.82512">
			 <ele>615</ele>
			<time>2015-10-12T19:48:12Z</time>
			</trkpt>
		
			<trkpt lat="47.85498" lon="6.82517">
			 <ele>615</ele>
			<time>2015-10-12T19:50:12Z</time>
			</trkpt>
		
			<trkpt lat="47.855" lon="6.82524">
			 <ele>616</ele>
			<time>2015-10-12T19:52:12Z</time>
			</trkpt>
		
			<trkpt lat="47.85501" lon="6.82532">
			 <ele>616</ele>
			<time>2015-10-12T19:54:12Z</time>
			</trkpt>
		
			<trkpt lat="47.85504" lon="6.82548">
			 <ele>617</ele>
			<time>2015-10-12T19:56:12Z</time>
			</trkpt>
		
			<trkpt lat="47.85507" lon="6.82565">
			 <ele>618</ele>
			<time>2015-10-12T19:58:12Z</time>
			</trkpt>
		
			<trkpt lat="47.85509" lon="6.82583">
			 <ele>620</ele>
			<time>2015-10-12T20:00:12Z</time>
			</trkpt>
		
			<trkpt lat="47.8551" lon="6.82598">
			 <ele>620</ele>
			<time>2015-10-12T20:02:12Z</time>
			</trkpt>
		
			<trkpt lat="47.8551" lon="6.82614">
			 <ele>620</ele>
			<time>2015-10-12T20:04:12Z</time>
			</trkpt>
		
			<trkpt lat="47.8551" lon="6.82627">
			 <ele>620</ele>
			<time>2015-10-12T20:06:12Z</time>
			</trkpt>
		
			<trkpt lat="47.85509" lon="6.8264">
			 <ele>620</ele>
			<time>2015-10-12T20:08:12Z</time>
			</trkpt>
		
			<trkpt lat="47.85508" lon="6.82656">
			 <ele>620</ele>
			<time>2015-10-12T20:10:12Z</time>
			</trkpt>
		
			<trkpt lat="47.85506" lon="6.82671">
			 <ele>620</ele>
			<time>2015-10-12T20:12:12Z</time>
			</trkpt>
		
			<trkpt lat="47.85504" lon="6.82681">
			 <ele>620</ele>
			<time>2015-10-12T20:14:12Z</time>
			</trkpt>
		
			<trkpt lat="47.85496" lon="6.82703">
			 <ele>621</ele>
			<time>2015-10-12T20:16:12Z</time>
			</trkpt>
		
			<trkpt lat="47.85465" lon="6.82778">
			 <ele>624</ele>
			<time>2015-10-12T20:18:12Z</time>
			</trkpt>
		
			<trkpt lat="47.85462" lon="6.82784">
			 <ele>624</ele>
			<time>2015-10-12T20:20:12Z</time>
			</trkpt>
		
			<trkpt lat="47.8546" lon="6.82787">
			 <ele>624</ele>
			<time>2015-10-12T20:22:12Z</time>
			</trkpt>
		
			<trkpt lat="47.85458" lon="6.8279">
			 <ele>624</ele>
			<time>2015-10-12T20:24:12Z</time>
			</trkpt>
		
			<trkpt lat="47.85449" lon="6.82801">
			 <ele>626</ele>
			<time>2015-10-12T20:26:12Z</time>
			</trkpt>
		
			<trkpt lat="47.85359" lon="6.82914">
			 <ele>638</ele>
			<time>2015-10-12T20:28:12Z</time>
			</trkpt>
		
			<trkpt lat="47.85298" lon="6.83018">
			 <ele>647</ele>
			<time>2015-10-12T20:30:12Z</time>
			</trkpt>
		
			<trkpt lat="47.85297" lon="6.8302">
			 <ele>647</ele>
			<time>2015-10-12T20:32:12Z</time>
			</trkpt>
		
			<trkpt lat="47.85295" lon="6.83022">
			 <ele>648</ele>
			<time>2015-10-12T20:34:12Z</time>
			</trkpt>
		
			<trkpt lat="47.85292" lon="6.83023">
			 <ele>648</ele>
			<time>2015-10-12T20:36:12Z</time>
			</trkpt>
		
			<trkpt lat="47.85285" lon="6.83019">
			 <ele>650</ele>
			<time>2015-10-12T20:38:12Z</time>
			</trkpt>
		
			<trkpt lat="47.85283" lon="6.83017">
			 <ele>650</ele>
			<time>2015-10-12T20:40:12Z</time>
			</trkpt>
		
			<trkpt lat="47.85282" lon="6.83015">
			 <ele>650</ele>
			<time>2015-10-12T20:42:12Z</time>
			</trkpt>
		
			<trkpt lat="47.85281" lon="6.83012">
			 <ele>651</ele>
			<time>2015-10-12T20:44:12Z</time>
			</trkpt>
		
			<trkpt lat="47.8528" lon="6.8301">
			 <ele>651</ele>
			<time>2015-10-12T20:46:12Z</time>
			</trkpt>
		
			<trkpt lat="47.85279" lon="6.83007">
			 <ele>651</ele>
			<time>2015-10-12T20:48:12Z</time>
			</trkpt>
		
			<trkpt lat="47.85279" lon="6.83002">
			 <ele>651</ele>
			<time>2015-10-12T20:50:12Z</time>
			</trkpt>
		
			<trkpt lat="47.85281" lon="6.8295">
			 <ele>651</ele>
			<time>2015-10-12T20:52:12Z</time>
			</trkpt>
		
			<trkpt lat="47.8528" lon="6.82933">
			 <ele>651</ele>
			<time>2015-10-12T20:54:12Z</time>
			</trkpt>
		
			<trkpt lat="47.8528" lon="6.82928">
			 <ele>651</ele>
			<time>2015-10-12T20:56:12Z</time>
			</trkpt>
		
			<trkpt lat="47.85278" lon="6.82922">
			 <ele>651</ele>
			<time>2015-10-12T20:58:12Z</time>
			</trkpt>
		
			<trkpt lat="47.85265" lon="6.82882">
			 <ele>653</ele>
			<time>2015-10-12T21:00:12Z</time>
			</trkpt>
		
			<trkpt lat="47.85264" lon="6.82878">
			 <ele>653</ele>
			<time>2015-10-12T21:02:12Z</time>
			</trkpt>
		
			<trkpt lat="47.85248" lon="6.82825">
			 <ele>655</ele>
			<time>2015-10-12T21:04:12Z</time>
			</trkpt>
		
			<trkpt lat="47.85243" lon="6.82804">
			 <ele>656</ele>
			<time>2015-10-12T21:06:12Z</time>
			</trkpt>
		
			<trkpt lat="47.8524" lon="6.82793">
			 <ele>656</ele>
			<time>2015-10-12T21:08:12Z</time>
			</trkpt>
		
			<trkpt lat="47.85238" lon="6.82789">
			 <ele>656</ele>
			<time>2015-10-12T21:10:12Z</time>
			</trkpt>
		
			<trkpt lat="47.85236" lon="6.82787">
			 <ele>656</ele>
			<time>2015-10-12T21:12:12Z</time>
			</trkpt>
		
			<trkpt lat="47.85234" lon="6.82784">
			 <ele>656</ele>
			<time>2015-10-12T21:14:12Z</time>
			</trkpt>
		
			<trkpt lat="47.85231" lon="6.82782">
			 <ele>656</ele>
			<time>2015-10-12T21:16:12Z</time>
			</trkpt>
		
			<trkpt lat="47.85227" lon="6.82779">
			 <ele>657</ele>
			<time>2015-10-12T21:18:12Z</time>
			</trkpt>
		
			<trkpt lat="47.85225" lon="6.82777">
			 <ele>657</ele>
			<time>2015-10-12T21:20:12Z</time>
			</trkpt>
		
			<trkpt lat="47.85223" lon="6.82776">
			 <ele>657</ele>
			<time>2015-10-12T21:22:12Z</time>
			</trkpt>
		
			<trkpt lat="47.8522" lon="6.82776">
			 <ele>657</ele>
			<time>2015-10-12T21:24:12Z</time>
			</trkpt>
		
			<trkpt lat="47.85218" lon="6.82775">
			 <ele>657</ele>
			<time>2015-10-12T21:26:12Z</time>
			</trkpt>
		
			<trkpt lat="47.85213" lon="6.82776">
			 <ele>657</ele>
			<time>2015-10-12T21:28:12Z</time>
			</trkpt>
		
			<trkpt lat="47.85208" lon="6.82777">
			 <ele>658</ele>
			<time>2015-10-12T21:30:12Z</time>
			</trkpt>
		
			<trkpt lat="47.85198" lon="6.82779">
			 <ele>658</ele>
			<time>2015-10-12T21:32:12Z</time>
			</trkpt>
		
			<trkpt lat="47.85186" lon="6.82782">
			 <ele>659</ele>
			<time>2015-10-12T21:34:12Z</time>
			</trkpt>
		
			<trkpt lat="47.8514" lon="6.82796">
			 <ele>662</ele>
			<time>2015-10-12T21:36:12Z</time>
			</trkpt>
		
			<trkpt lat="47.85123" lon="6.82803">
			 <ele>664</ele>
			<time>2015-10-12T21:38:12Z</time>
			</trkpt>
		
			<trkpt lat="47.85113" lon="6.82808">
			 <ele>665</ele>
			<time>2015-10-12T21:40:12Z</time>
			</trkpt>
		
			<trkpt lat="47.85105" lon="6.82812">
			 <ele>666</ele>
			<time>2015-10-12T21:42:12Z</time>
			</trkpt>
		
			<trkpt lat="47.851" lon="6.82815">
			 <ele>666</ele>
			<time>2015-10-12T21:44:12Z</time>
			</trkpt>
		
			<trkpt lat="47.85071" lon="6.8284">
			 <ele>671</ele>
			<time>2015-10-12T21:46:12Z</time>
			</trkpt>
		
			<trkpt lat="47.85066" lon="6.82844">
			 <ele>671</ele>
			<time>2015-10-12T21:48:12Z</time>
			</trkpt>
		
			<trkpt lat="47.85063" lon="6.82846">
			 <ele>672</ele>
			<time>2015-10-12T21:50:12Z</time>
			</trkpt>
		
			<trkpt lat="47.85058" lon="6.82848">
			 <ele>672</ele>
			<time>2015-10-12T21:52:12Z</time>
			</trkpt>
		
			<trkpt lat="47.85053" lon="6.82849">
			 <ele>672</ele>
			<time>2015-10-12T21:54:12Z</time>
			</trkpt>
		
			<trkpt lat="47.85023" lon="6.82855">
			 <ele>672</ele>
			<time>2015-10-12T21:56:12Z</time>
			</trkpt>
		
			<trkpt lat="47.85021" lon="6.82855">
			 <ele>672</ele>
			<time>2015-10-12T21:58:12Z</time>
			</trkpt>
		
			<trkpt lat="47.85019" lon="6.82856">
			 <ele>672</ele>
			<time>2015-10-12T22:00:12Z</time>
			</trkpt>
		
			<trkpt lat="47.85017" lon="6.82857">
			 <ele>672</ele>
			<time>2015-10-12T22:02:12Z</time>
			</trkpt>
		
			<trkpt lat="47.85015" lon="6.82859">
			 <ele>672</ele>
			<time>2015-10-12T22:04:12Z</time>
			</trkpt>
		
			<trkpt lat="47.85014" lon="6.82861">
			 <ele>672</ele>
			<time>2015-10-12T22:06:12Z</time>
			</trkpt>
		
			<trkpt lat="47.85013" lon="6.82862">
			 <ele>672</ele>
			<time>2015-10-12T22:08:12Z</time>
			</trkpt>
		
			<trkpt lat="47.85005" lon="6.82876">
			 <ele>674</ele>
			<time>2015-10-12T22:10:12Z</time>
			</trkpt>
		
			<trkpt lat="47.84979" lon="6.82948">
			 <ele>679</ele>
			<time>2015-10-12T22:12:12Z</time>
			</trkpt>
		
			<trkpt lat="47.84966" lon="6.82979">
			 <ele>682</ele>
			<time>2015-10-12T22:14:12Z</time>
			</trkpt>
		
			<trkpt lat="47.84942" lon="6.83036">
			 <ele>687</ele>
			<time>2015-10-12T22:16:12Z</time>
			</trkpt>
		
			<trkpt lat="47.84937" lon="6.83051">
			 <ele>689</ele>
			<time>2015-10-12T22:18:12Z</time>
			</trkpt>
		
			<trkpt lat="47.84933" lon="6.83059">
			 <ele>689</ele>
			<time>2015-10-12T22:20:12Z</time>
			</trkpt>
		
			<trkpt lat="47.8493" lon="6.83066">
			 <ele>690</ele>
			<time>2015-10-12T22:22:12Z</time>
			</trkpt>
		
			<trkpt lat="47.84926" lon="6.83072">
			 <ele>690</ele>
			<time>2015-10-12T22:24:12Z</time>
			</trkpt>
		
			<trkpt lat="47.84903" lon="6.83109">
			 <ele>694</ele>
			<time>2015-10-12T22:26:12Z</time>
			</trkpt>
		
			<trkpt lat="47.84894" lon="6.83124">
			 <ele>695</ele>
			<time>2015-10-12T22:28:12Z</time>
			</trkpt>
		
			<trkpt lat="47.84887" lon="6.83136">
			 <ele>697</ele>
			<time>2015-10-12T22:30:12Z</time>
			</trkpt>
		
			<trkpt lat="47.84882" lon="6.83147">
			 <ele>698</ele>
			<time>2015-10-12T22:32:12Z</time>
			</trkpt>
		
			<trkpt lat="47.84877" lon="6.83156">
			 <ele>699</ele>
			<time>2015-10-12T22:34:12Z</time>
			</trkpt>
		
			<trkpt lat="47.84872" lon="6.83163">
			 <ele>700</ele>
			<time>2015-10-12T22:36:12Z</time>
			</trkpt>
		
			<trkpt lat="47.84865" lon="6.83171">
			 <ele>700</ele>
			<time>2015-10-12T22:38:12Z</time>
			</trkpt>
		
			<trkpt lat="47.84855" lon="6.8318">
			 <ele>701</ele>
			<time>2015-10-12T22:40:12Z</time>
			</trkpt>
		
			<trkpt lat="47.84846" lon="6.83186">
			 <ele>701</ele>
			<time>2015-10-12T22:42:12Z</time>
			</trkpt>
		
			<trkpt lat="47.84827" lon="6.83198">
			 <ele>702</ele>
			<time>2015-10-12T22:44:12Z</time>
			</trkpt>
		
			<trkpt lat="47.84809" lon="6.83208">
			 <ele>705</ele>
			<time>2015-10-12T22:46:12Z</time>
			</trkpt>
		
			<trkpt lat="47.84777" lon="6.83222">
			 <ele>709</ele>
			<time>2015-10-12T22:48:12Z</time>
			</trkpt>
		
			<trkpt lat="47.84757" lon="6.83229">
			 <ele>711</ele>
			<time>2015-10-12T22:50:12Z</time>
			</trkpt>
		
			<trkpt lat="47.84743" lon="6.83232">
			 <ele>713</ele>
			<time>2015-10-12T22:52:12Z</time>
			</trkpt>
		
			<trkpt lat="47.84726" lon="6.83234">
			 <ele>714</ele>
			<time>2015-10-12T22:54:12Z</time>
			</trkpt>
		
			<trkpt lat="47.8471" lon="6.83236">
			 <ele>715</ele>
			<time>2015-10-12T22:56:12Z</time>
			</trkpt>
		
			<trkpt lat="47.84695" lon="6.83237">
			 <ele>716</ele>
			<time>2015-10-12T22:58:12Z</time>
			</trkpt>
		
			<trkpt lat="47.84684" lon="6.83239">
			 <ele>717</ele>
			<time>2015-10-12T23:00:12Z</time>
			</trkpt>
		
			<trkpt lat="47.84668" lon="6.83243">
			 <ele>719</ele>
			<time>2015-10-12T23:02:12Z</time>
			</trkpt>
		
			<trkpt lat="47.84638" lon="6.83248">
			 <ele>721</ele>
			<time>2015-10-12T23:04:12Z</time>
			</trkpt>
		
			<trkpt lat="47.84624" lon="6.8325">
			 <ele>722</ele>
			<time>2015-10-12T23:06:12Z</time>
			</trkpt>
		
			<trkpt lat="47.84612" lon="6.83252">
			 <ele>723</ele>
			<time>2015-10-12T23:08:12Z</time>
			</trkpt>
		
			<trkpt lat="47.84591" lon="6.83259">
			 <ele>726</ele>
			<time>2015-10-12T23:10:12Z</time>
			</trkpt>
		
			<trkpt lat="47.84527" lon="6.83299">
			 <ele>736</ele>
			<time>2015-10-12T23:12:12Z</time>
			</trkpt>
		
			<trkpt lat="47.84503" lon="6.83314">
			 <ele>740</ele>
			<time>2015-10-12T23:14:12Z</time>
			</trkpt>
		
			<trkpt lat="47.84494" lon="6.8332">
			 <ele>741</ele>
			<time>2015-10-12T23:16:12Z</time>
			</trkpt>
		
			<trkpt lat="47.84482" lon="6.83329">
			 <ele>743</ele>
			<time>2015-10-12T23:18:12Z</time>
			</trkpt>
		
			<trkpt lat="47.84465" lon="6.83347">
			 <ele>747</ele>
			<time>2015-10-12T23:20:12Z</time>
			</trkpt>
		
			<trkpt lat="47.84438" lon="6.83374">
			 <ele>751</ele>
			<time>2015-10-12T23:22:12Z</time>
			</trkpt>
		
			<trkpt lat="47.84424" lon="6.83388">
			 <ele>753</ele>
			<time>2015-10-12T23:24:12Z</time>
			</trkpt>
		
			<trkpt lat="47.84414" lon="6.83397">
			 <ele>755</ele>
			<time>2015-10-12T23:26:12Z</time>
			</trkpt>
		
			<trkpt lat="47.84404" lon="6.83404">
			 <ele>755</ele>
			<time>2015-10-12T23:28:12Z</time>
			</trkpt>
		
			<trkpt lat="47.84389" lon="6.83411">
			 <ele>756</ele>
			<time>2015-10-12T23:30:12Z</time>
			</trkpt>
		
			<trkpt lat="47.84376" lon="6.83416">
			 <ele>756</ele>
			<time>2015-10-12T23:32:12Z</time>
			</trkpt>
		
			<trkpt lat="47.84344" lon="6.83427">
			 <ele>756</ele>
			<time>2015-10-12T23:34:12Z</time>
			</trkpt>
		
			<trkpt lat="47.84333" lon="6.83431">
			 <ele>756</ele>
			<time>2015-10-12T23:36:12Z</time>
			</trkpt>
		
			<trkpt lat="47.84321" lon="6.83439">
			 <ele>758</ele>
			<time>2015-10-12T23:38:12Z</time>
			</trkpt>
		
			<trkpt lat="47.84309" lon="6.8345">
			 <ele>760</ele>
			<time>2015-10-12T23:40:12Z</time>
			</trkpt>
		
			<trkpt lat="47.84297" lon="6.83464">
			 <ele>763</ele>
			<time>2015-10-12T23:42:12Z</time>
			</trkpt>
		
			<trkpt lat="47.84282" lon="6.83482">
			 <ele>765</ele>
			<time>2015-10-12T23:44:12Z</time>
			</trkpt>
		
			<trkpt lat="47.84265" lon="6.83506">
			 <ele>766</ele>
			<time>2015-10-12T23:46:12Z</time>
			</trkpt>
		
			<trkpt lat="47.84252" lon="6.83526">
			 <ele>768</ele>
			<time>2015-10-12T23:48:12Z</time>
			</trkpt>
		
			<trkpt lat="47.8424" lon="6.83543">
			 <ele>772</ele>
			<time>2015-10-12T23:50:12Z</time>
			</trkpt>
		
			<trkpt lat="47.8423" lon="6.83557">
			 <ele>775</ele>
			<time>2015-10-12T23:52:12Z</time>
			</trkpt>
		
			<trkpt lat="47.84216" lon="6.83573">
			 <ele>777</ele>
			<time>2015-10-12T23:54:12Z</time>
			</trkpt>
		
			<trkpt lat="47.84204" lon="6.83586">
			 <ele>779</ele>
			<time>2015-10-12T23:56:12Z</time>
			</trkpt>
		
			<trkpt lat="47.84186" lon="6.83605">
			 <ele>782</ele>
			<time>2015-10-12T23:58:12Z</time>
			</trkpt>
		
			<trkpt lat="47.84177" lon="6.83613">
			 <ele>783</ele>
			<time>2015-10-13T00:00:12Z</time>
			</trkpt>
		
			<trkpt lat="47.84175" lon="6.83615">
			 <ele>783</ele>
			<time>2015-10-13T00:02:12Z</time>
			</trkpt>
		
			<trkpt lat="47.8417" lon="6.83617">
			 <ele>783</ele>
			<time>2015-10-13T00:04:12Z</time>
			</trkpt>
		
			<trkpt lat="47.84169" lon="6.83617">
			 <ele>782</ele>
			<time>2015-10-13T00:06:12Z</time>
			</trkpt>
		
			<trkpt lat="47.84167" lon="6.83617">
			 <ele>782</ele>
			<time>2015-10-13T00:08:12Z</time>
			</trkpt>
		
			<trkpt lat="47.84166" lon="6.83617">
			 <ele>782</ele>
			<time>2015-10-13T00:10:12Z</time>
			</trkpt>
		
			<trkpt lat="47.84165" lon="6.83617">
			 <ele>783</ele>
			<time>2015-10-13T00:12:12Z</time>
			</trkpt>
		
			<trkpt lat="47.84163" lon="6.83617">
			 <ele>783</ele>
			<time>2015-10-13T00:14:12Z</time>
			</trkpt>
		
			<trkpt lat="47.84162" lon="6.83616">
			 <ele>783</ele>
			<time>2015-10-13T00:16:12Z</time>
			</trkpt>
		
			<trkpt lat="47.8416" lon="6.83614">
			 <ele>783</ele>
			<time>2015-10-13T00:18:12Z</time>
			</trkpt>
		
			<trkpt lat="47.84158" lon="6.83612">
			 <ele>784</ele>
			<time>2015-10-13T00:20:12Z</time>
			</trkpt>
		
			<trkpt lat="47.84155" lon="6.83604">
			 <ele>784</ele>
			<time>2015-10-13T00:22:12Z</time>
			</trkpt>
		
			<trkpt lat="47.84154" lon="6.83599">
			 <ele>783</ele>
			<time>2015-10-13T00:24:12Z</time>
			</trkpt>
		
			<trkpt lat="47.84153" lon="6.83595">
			 <ele>783</ele>
			<time>2015-10-13T00:26:12Z</time>
			</trkpt>
		
			<trkpt lat="47.84153" lon="6.8359">
			 <ele>782</ele>
			<time>2015-10-13T00:28:12Z</time>
			</trkpt>
		
			<trkpt lat="47.84153" lon="6.83585">
			 <ele>782</ele>
			<time>2015-10-13T00:30:12Z</time>
			</trkpt>
		
			<trkpt lat="47.84153" lon="6.83581">
			 <ele>782</ele>
			<time>2015-10-13T00:32:12Z</time>
			</trkpt>
		
			<trkpt lat="47.84158" lon="6.83541">
			 <ele>781</ele>
			<time>2015-10-13T00:34:12Z</time>
			</trkpt>
		
			<trkpt lat="47.84162" lon="6.83511">
			 <ele>780</ele>
			<time>2015-10-13T00:36:12Z</time>
			</trkpt>
		
			<trkpt lat="47.84164" lon="6.83495">
			 <ele>780</ele>
			<time>2015-10-13T00:38:12Z</time>
			</trkpt>
		
			<trkpt lat="47.84166" lon="6.83485">
			 <ele>780</ele>
			<time>2015-10-13T00:40:12Z</time>
			</trkpt>
		
			<trkpt lat="47.84176" lon="6.83432">
			 <ele>784</ele>
			<time>2015-10-13T00:42:12Z</time>
			</trkpt>
		
			<trkpt lat="47.84183" lon="6.83392">
			 <ele>783</ele>
			<time>2015-10-13T00:44:12Z</time>
			</trkpt>
		
			<trkpt lat="47.84188" lon="6.83354">
			 <ele>782</ele>
			<time>2015-10-13T00:46:12Z</time>
			</trkpt>
		
			<trkpt lat="47.84189" lon="6.83345">
			 <ele>782</ele>
			<time>2015-10-13T00:48:12Z</time>
			</trkpt>
		
			<trkpt lat="47.84189" lon="6.83335">
			 <ele>782</ele>
			<time>2015-10-13T00:50:12Z</time>
			</trkpt>
		
			<trkpt lat="47.84188" lon="6.83329">
			 <ele>782</ele>
			<time>2015-10-13T00:52:12Z</time>
			</trkpt>
		
			<trkpt lat="47.84187" lon="6.83322">
			 <ele>782</ele>
			<time>2015-10-13T00:54:12Z</time>
			</trkpt>
		
			<trkpt lat="47.84186" lon="6.83314">
			 <ele>782</ele>
			<time>2015-10-13T00:56:12Z</time>
			</trkpt>
		
			<trkpt lat="47.84184" lon="6.83309">
			 <ele>782</ele>
			<time>2015-10-13T00:58:12Z</time>
			</trkpt>
		
			<trkpt lat="47.84183" lon="6.83305">
			 <ele>782</ele>
			<time>2015-10-13T01:00:12Z</time>
			</trkpt>
		
			<trkpt lat="47.84181" lon="6.833">
			 <ele>783</ele>
			<time>2015-10-13T01:02:12Z</time>
			</trkpt>
		
			<trkpt lat="47.84179" lon="6.83296">
			 <ele>783</ele>
			<time>2015-10-13T01:04:12Z</time>
			</trkpt>
		
			<trkpt lat="47.84176" lon="6.83292">
			 <ele>784</ele>
			<time>2015-10-13T01:06:12Z</time>
			</trkpt>
		
			<trkpt lat="47.84173" lon="6.83289">
			 <ele>784</ele>
			<time>2015-10-13T01:08:12Z</time>
			</trkpt>
		
			<trkpt lat="47.8416" lon="6.83282">
			 <ele>787</ele>
			<time>2015-10-13T01:10:12Z</time>
			</trkpt>
		
			<trkpt lat="47.84144" lon="6.83274">
			 <ele>789</ele>
			<time>2015-10-13T01:12:12Z</time>
			</trkpt>
		
			<trkpt lat="47.84129" lon="6.83265">
			 <ele>790</ele>
			<time>2015-10-13T01:14:12Z</time>
			</trkpt>
		
			<trkpt lat="47.84112" lon="6.83252">
			 <ele>791</ele>
			<time>2015-10-13T01:16:12Z</time>
			</trkpt>
		
			<trkpt lat="47.84078" lon="6.83218">
			 <ele>791</ele>
			<time>2015-10-13T01:18:12Z</time>
			</trkpt>
		
			<trkpt lat="47.84053" lon="6.83193">
			 <ele>794</ele>
			<time>2015-10-13T01:20:12Z</time>
			</trkpt>
		
			<trkpt lat="47.84046" lon="6.83184">
			 <ele>794</ele>
			<time>2015-10-13T01:22:12Z</time>
			</trkpt>
		
			<trkpt lat="47.84036" lon="6.83168">
			 <ele>794</ele>
			<time>2015-10-13T01:24:12Z</time>
			</trkpt>
		
			<trkpt lat="47.84022" lon="6.83146">
			 <ele>795</ele>
			<time>2015-10-13T01:26:12Z</time>
			</trkpt>
		
			<trkpt lat="47.84007" lon="6.83121">
			 <ele>796</ele>
			<time>2015-10-13T01:28:12Z</time>
			</trkpt>
		
			<trkpt lat="47.8399" lon="6.83094">
			 <ele>799</ele>
			<time>2015-10-13T01:30:12Z</time>
			</trkpt>
		
			<trkpt lat="47.83978" lon="6.8307">
			 <ele>802</ele>
			<time>2015-10-13T01:32:12Z</time>
			</trkpt>
		
			<trkpt lat="47.83971" lon="6.83052">
			 <ele>804</ele>
			<time>2015-10-13T01:34:12Z</time>
			</trkpt>
		
			<trkpt lat="47.83956" lon="6.83019">
			 <ele>808</ele>
			<time>2015-10-13T01:36:12Z</time>
			</trkpt>
		
			<trkpt lat="47.8393" lon="6.82961">
			 <ele>813</ele>
			<time>2015-10-13T01:38:12Z</time>
			</trkpt>
		
			<trkpt lat="47.83911" lon="6.82918">
			 <ele>814</ele>
			<time>2015-10-13T01:40:12Z</time>
			</trkpt>
		
			<trkpt lat="47.83899" lon="6.82897">
			 <ele>816</ele>
			<time>2015-10-13T01:42:12Z</time>
			</trkpt>
		
			<trkpt lat="47.8388" lon="6.82866">
			 <ele>819</ele>
			<time>2015-10-13T01:44:12Z</time>
			</trkpt>
		
			<trkpt lat="47.83832" lon="6.8279">
			 <ele>825</ele>
			<time>2015-10-13T01:46:12Z</time>
			</trkpt>
		
			<trkpt lat="47.83817" lon="6.8277">
			 <ele>827</ele>
			<time>2015-10-13T01:48:12Z</time>
			</trkpt>
		
			<trkpt lat="47.83779" lon="6.82713">
			 <ele>831</ele>
			<time>2015-10-13T01:50:12Z</time>
			</trkpt>
		
			<trkpt lat="47.83768" lon="6.82699">
			 <ele>832</ele>
			<time>2015-10-13T01:52:12Z</time>
			</trkpt>
		
			<trkpt lat="47.83761" lon="6.82689">
			 <ele>832</ele>
			<time>2015-10-13T01:54:12Z</time>
			</trkpt>
		
			<trkpt lat="47.83755" lon="6.82682">
			 <ele>833</ele>
			<time>2015-10-13T01:56:12Z</time>
			</trkpt>
		
			<trkpt lat="47.83741" lon="6.82668">
			 <ele>834</ele>
			<time>2015-10-13T01:58:12Z</time>
			</trkpt>
		
			<trkpt lat="47.83727" lon="6.82657">
			 <ele>835</ele>
			<time>2015-10-13T02:00:12Z</time>
			</trkpt>
		
			<trkpt lat="47.83716" lon="6.82651">
			 <ele>836</ele>
			<time>2015-10-13T02:02:12Z</time>
			</trkpt>
		
			<trkpt lat="47.83695" lon="6.8264">
			 <ele>838</ele>
			<time>2015-10-13T02:04:12Z</time>
			</trkpt>
		
			<trkpt lat="47.83676" lon="6.82634">
			 <ele>840</ele>
			<time>2015-10-13T02:06:12Z</time>
			</trkpt>
		
			<trkpt lat="47.83668" lon="6.82634">
			 <ele>841</ele>
			<time>2015-10-13T02:08:12Z</time>
			</trkpt>
		
			<trkpt lat="47.8366" lon="6.82636">
			 <ele>841</ele>
			<time>2015-10-13T02:10:12Z</time>
			</trkpt>
		
			<trkpt lat="47.83651" lon="6.82638">
			 <ele>841</ele>
			<time>2015-10-13T02:12:12Z</time>
			</trkpt>
		
			<trkpt lat="47.83633" lon="6.82645">
			 <ele>841</ele>
			<time>2015-10-13T02:14:12Z</time>
			</trkpt>
		
			<trkpt lat="47.83617" lon="6.82652">
			 <ele>841</ele>
			<time>2015-10-13T02:16:12Z</time>
			</trkpt>
		
			<trkpt lat="47.83604" lon="6.8266">
			 <ele>842</ele>
			<time>2015-10-13T02:18:12Z</time>
			</trkpt>
		
			<trkpt lat="47.83598" lon="6.82666">
			 <ele>843</ele>
			<time>2015-10-13T02:20:12Z</time>
			</trkpt>
		
			<trkpt lat="47.83595" lon="6.82673">
			 <ele>843</ele>
			<time>2015-10-13T02:22:12Z</time>
			</trkpt>
		
			<trkpt lat="47.83594" lon="6.82677">
			 <ele>844</ele>
			<time>2015-10-13T02:24:12Z</time>
			</trkpt>
		
			<trkpt lat="47.83595" lon="6.82683">
			 <ele>844</ele>
			<time>2015-10-13T02:26:12Z</time>
			</trkpt>
		
			<trkpt lat="47.83596" lon="6.82687">
			 <ele>845</ele>
			<time>2015-10-13T02:28:12Z</time>
			</trkpt>
		
			<trkpt lat="47.83598" lon="6.8269">
			 <ele>845</ele>
			<time>2015-10-13T02:30:12Z</time>
			</trkpt>
		
			<trkpt lat="47.83601" lon="6.82691">
			 <ele>846</ele>
			<time>2015-10-13T02:32:12Z</time>
			</trkpt>
		
			<trkpt lat="47.83605" lon="6.8269">
			 <ele>846</ele>
			<time>2015-10-13T02:34:12Z</time>
			</trkpt>
		
			<trkpt lat="47.8361" lon="6.82689">
			 <ele>846</ele>
			<time>2015-10-13T02:36:12Z</time>
			</trkpt>
		
			<trkpt lat="47.83615" lon="6.82685">
			 <ele>846</ele>
			<time>2015-10-13T02:38:12Z</time>
			</trkpt>
		
			<trkpt lat="47.83622" lon="6.82679">
			 <ele>845</ele>
			<time>2015-10-13T02:40:12Z</time>
			</trkpt>
		
			<trkpt lat="47.83631" lon="6.82672">
			 <ele>845</ele>
			<time>2015-10-13T02:42:12Z</time>
			</trkpt>
		
			<trkpt lat="47.83638" lon="6.82669">
			 <ele>845</ele>
			<time>2015-10-13T02:44:12Z</time>
			</trkpt>
		
			<trkpt lat="47.83642" lon="6.82668">
			 <ele>845</ele>
			<time>2015-10-13T02:46:12Z</time>
			</trkpt>
		
			<trkpt lat="47.83648" lon="6.82668">
			 <ele>845</ele>
			<time>2015-10-13T02:48:12Z</time>
			</trkpt>
		
			<trkpt lat="47.83653" lon="6.8267">
			 <ele>846</ele>
			<time>2015-10-13T02:50:12Z</time>
			</trkpt>
		
			<trkpt lat="47.83661" lon="6.82674">
			 <ele>847</ele>
			<time>2015-10-13T02:52:12Z</time>
			</trkpt>
		
			<trkpt lat="47.83669" lon="6.8268">
			 <ele>848</ele>
			<time>2015-10-13T02:54:12Z</time>
			</trkpt>
		
			<trkpt lat="47.83677" lon="6.82688">
			 <ele>847</ele>
			<time>2015-10-13T02:56:12Z</time>
			</trkpt>
		
			<trkpt lat="47.83684" lon="6.82699">
			 <ele>848</ele>
			<time>2015-10-13T02:58:12Z</time>
			</trkpt>
		
			<trkpt lat="47.83695" lon="6.82718">
			 <ele>848</ele>
			<time>2015-10-13T03:00:12Z</time>
			</trkpt>
		
			<trkpt lat="47.83704" lon="6.82735">
			 <ele>849</ele>
			<time>2015-10-13T03:02:12Z</time>
			</trkpt>
		
			<trkpt lat="47.83721" lon="6.82773">
			 <ele>851</ele>
			<time>2015-10-13T03:04:12Z</time>
			</trkpt>
		
			<trkpt lat="47.83732" lon="6.82802">
			 <ele>854</ele>
			<time>2015-10-13T03:06:12Z</time>
			</trkpt>
		
			<trkpt lat="47.8374" lon="6.82828">
			 <ele>856</ele>
			<time>2015-10-13T03:08:12Z</time>
			</trkpt>
		
			<trkpt lat="47.8375" lon="6.82855">
			 <ele>858</ele>
			<time>2015-10-13T03:10:12Z</time>
			</trkpt>
		
			<trkpt lat="47.8376" lon="6.82888">
			 <ele>860</ele>
			<time>2015-10-13T03:12:12Z</time>
			</trkpt>
		
			<trkpt lat="47.83781" lon="6.82954">
			 <ele>864</ele>
			<time>2015-10-13T03:14:12Z</time>
			</trkpt>
		
			<trkpt lat="47.83786" lon="6.82969">
			 <ele>864</ele>
			<time>2015-10-13T03:16:12Z</time>
			</trkpt>
		
			<trkpt lat="47.83789" lon="6.8298">
			 <ele>865</ele>
			<time>2015-10-13T03:18:12Z</time>
			</trkpt>
		
			<trkpt lat="47.83792" lon="6.82998">
			 <ele>866</ele>
			<time>2015-10-13T03:20:12Z</time>
			</trkpt>
		
			<trkpt lat="47.83793" lon="6.83006">
			 <ele>867</ele>
			<time>2015-10-13T03:22:12Z</time>
			</trkpt>
		
			<trkpt lat="47.83798" lon="6.83031">
			 <ele>868</ele>
			<time>2015-10-13T03:24:12Z</time>
			</trkpt>
		
			<trkpt lat="47.83827" lon="6.83221">
			 <ele>877</ele>
			<time>2015-10-13T03:26:12Z</time>
			</trkpt>
		
			<trkpt lat="47.83832" lon="6.83258">
			 <ele>878</ele>
			<time>2015-10-13T03:28:12Z</time>
			</trkpt>
		
			<trkpt lat="47.83837" lon="6.83295">
			 <ele>879</ele>
			<time>2015-10-13T03:30:12Z</time>
			</trkpt>
		
			<trkpt lat="47.83842" lon="6.83329">
			 <ele>880</ele>
			<time>2015-10-13T03:32:12Z</time>
			</trkpt>
		
			<trkpt lat="47.83846" lon="6.83371">
			 <ele>881</ele>
			<time>2015-10-13T03:34:12Z</time>
			</trkpt>
		
			<trkpt lat="47.83846" lon="6.83382">
			 <ele>881</ele>
			<time>2015-10-13T03:36:12Z</time>
			</trkpt>
		
			<trkpt lat="47.83845" lon="6.83396">
			 <ele>882</ele>
			<time>2015-10-13T03:38:12Z</time>
			</trkpt>
		
			<trkpt lat="47.83845" lon="6.83409">
			 <ele>883</ele>
			<time>2015-10-13T03:40:12Z</time>
			</trkpt>
		
			<trkpt lat="47.83845" lon="6.83417">
			 <ele>883</ele>
			<time>2015-10-13T03:42:12Z</time>
			</trkpt>
		
			<trkpt lat="47.83845" lon="6.83423">
			 <ele>883</ele>
			<time>2015-10-13T03:44:12Z</time>
			</trkpt>
		
			<trkpt lat="47.83846" lon="6.83435">
			 <ele>883</ele>
			<time>2015-10-13T03:46:12Z</time>
			</trkpt>
		
			<trkpt lat="47.83847" lon="6.83445">
			 <ele>883</ele>
			<time>2015-10-13T03:48:12Z</time>
			</trkpt>
		
			<trkpt lat="47.83854" lon="6.8348">
			 <ele>881</ele>
			<time>2015-10-13T03:50:12Z</time>
			</trkpt>
		
			<trkpt lat="47.83856" lon="6.83489">
			 <ele>881</ele>
			<time>2015-10-13T03:52:12Z</time>
			</trkpt>
		
			<trkpt lat="47.83855" lon="6.83492">
			 <ele>881</ele>
			<time>2015-10-13T03:54:12Z</time>
			</trkpt>
		
			<trkpt lat="47.83855" lon="6.83496">
			 <ele>881</ele>
			<time>2015-10-13T03:56:12Z</time>
			</trkpt>
		
			<trkpt lat="47.83854" lon="6.83498">
			 <ele>882</ele>
			<time>2015-10-13T03:58:12Z</time>
			</trkpt>
		
			<trkpt lat="47.83853" lon="6.83501">
			 <ele>882</ele>
			<time>2015-10-13T04:00:12Z</time>
			</trkpt>
		
			<trkpt lat="47.83852" lon="6.83502">
			 <ele>882</ele>
			<time>2015-10-13T04:02:12Z</time>
			</trkpt>
		
			<trkpt lat="47.8385" lon="6.83504">
			 <ele>882</ele>
			<time>2015-10-13T04:04:12Z</time>
			</trkpt>
		
			<trkpt lat="47.83848" lon="6.83506">
			 <ele>882</ele>
			<time>2015-10-13T04:06:12Z</time>
			</trkpt>
		
			<trkpt lat="47.83846" lon="6.83507">
			 <ele>883</ele>
			<time>2015-10-13T04:08:12Z</time>
			</trkpt>
		
			<trkpt lat="47.83844" lon="6.83507">
			 <ele>883</ele>
			<time>2015-10-13T04:10:12Z</time>
			</trkpt>
		
			<trkpt lat="47.83843" lon="6.83508">
			 <ele>884</ele>
			<time>2015-10-13T04:12:12Z</time>
			</trkpt>
		
			<trkpt lat="47.83842" lon="6.83507">
			 <ele>884</ele>
			<time>2015-10-13T04:14:12Z</time>
			</trkpt>
		
			<trkpt lat="47.8384" lon="6.83506">
			 <ele>885</ele>
			<time>2015-10-13T04:16:12Z</time>
			</trkpt>
		
			<trkpt lat="47.83838" lon="6.83505">
			 <ele>885</ele>
			<time>2015-10-13T04:18:12Z</time>
			</trkpt>
		
			<trkpt lat="47.83836" lon="6.83504">
			 <ele>886</ele>
			<time>2015-10-13T04:20:12Z</time>
			</trkpt>
		
			<trkpt lat="47.83835" lon="6.83502">
			 <ele>886</ele>
			<time>2015-10-13T04:22:12Z</time>
			</trkpt>
		
			<trkpt lat="47.83834" lon="6.83501">
			 <ele>887</ele>
			<time>2015-10-13T04:24:12Z</time>
			</trkpt>
		
			<trkpt lat="47.83833" lon="6.835">
			 <ele>887</ele>
			<time>2015-10-13T04:26:12Z</time>
			</trkpt>
		
			<trkpt lat="47.83831" lon="6.83493">
			 <ele>888</ele>
			<time>2015-10-13T04:28:12Z</time>
			</trkpt>
		
			<trkpt lat="47.83824" lon="6.83471">
			 <ele>890</ele>
			<time>2015-10-13T04:30:12Z</time>
			</trkpt>
		
			<trkpt lat="47.83816" lon="6.83447">
			 <ele>892</ele>
			<time>2015-10-13T04:32:12Z</time>
			</trkpt>
		
			<trkpt lat="47.83808" lon="6.8342">
			 <ele>894</ele>
			<time>2015-10-13T04:34:12Z</time>
			</trkpt>
		
			<trkpt lat="47.83801" lon="6.83398">
			 <ele>895</ele>
			<time>2015-10-13T04:36:12Z</time>
			</trkpt>
		
			<trkpt lat="47.83796" lon="6.83385">
			 <ele>896</ele>
			<time>2015-10-13T04:38:12Z</time>
			</trkpt>
		
			<trkpt lat="47.83792" lon="6.83376">
			 <ele>897</ele>
			<time>2015-10-13T04:40:12Z</time>
			</trkpt>
		
			<trkpt lat="47.8379" lon="6.83372">
			 <ele>897</ele>
			<time>2015-10-13T04:42:12Z</time>
			</trkpt>
		
			<trkpt lat="47.83787" lon="6.83367">
			 <ele>898</ele>
			<time>2015-10-13T04:44:12Z</time>
			</trkpt>
		
			<trkpt lat="47.83784" lon="6.83363">
			 <ele>899</ele>
			<time>2015-10-13T04:46:12Z</time>
			</trkpt>
		
			<trkpt lat="47.8378" lon="6.83358">
			 <ele>900</ele>
			<time>2015-10-13T04:48:12Z</time>
			</trkpt>
		
			<trkpt lat="47.83771" lon="6.83347">
			 <ele>902</ele>
			<time>2015-10-13T04:50:12Z</time>
			</trkpt>
		
			<trkpt lat="47.83765" lon="6.83339">
			 <ele>903</ele>
			<time>2015-10-13T04:52:12Z</time>
			</trkpt>
		
			<trkpt lat="47.83759" lon="6.83331">
			 <ele>904</ele>
			<time>2015-10-13T04:54:12Z</time>
			</trkpt>
		
			<trkpt lat="47.83756" lon="6.83328">
			 <ele>905</ele>
			<time>2015-10-13T04:56:12Z</time>
			</trkpt>
		
			<trkpt lat="47.83748" lon="6.83313">
			 <ele>907</ele>
			<time>2015-10-13T04:58:12Z</time>
			</trkpt>
		
			<trkpt lat="47.83745" lon="6.83307">
			 <ele>907</ele>
			<time>2015-10-13T05:00:12Z</time>
			</trkpt>
		
			<trkpt lat="47.83738" lon="6.83286">
			 <ele>909</ele>
			<time>2015-10-13T05:02:12Z</time>
			</trkpt>
		
			<trkpt lat="47.83734" lon="6.83272">
			 <ele>909</ele>
			<time>2015-10-13T05:04:12Z</time>
			</trkpt>
		
			<trkpt lat="47.83731" lon="6.83257">
			 <ele>909</ele>
			<time>2015-10-13T05:06:12Z</time>
			</trkpt>
		
			<trkpt lat="47.83728" lon="6.83239">
			 <ele>910</ele>
			<time>2015-10-13T05:08:12Z</time>
			</trkpt>
		
			<trkpt lat="47.83724" lon="6.83219">
			 <ele>910</ele>
			<time>2015-10-13T05:10:12Z</time>
			</trkpt>
		
			<trkpt lat="47.83719" lon="6.83197">
			 <ele>911</ele>
			<time>2015-10-13T05:12:12Z</time>
			</trkpt>
		
			<trkpt lat="47.83714" lon="6.83179">
			 <ele>911</ele>
			<time>2015-10-13T05:14:12Z</time>
			</trkpt>
		
			<trkpt lat="47.83708" lon="6.83165">
			 <ele>912</ele>
			<time>2015-10-13T05:16:12Z</time>
			</trkpt>
		
			<trkpt lat="47.83701" lon="6.83153">
			 <ele>912</ele>
			<time>2015-10-13T05:18:12Z</time>
			</trkpt>
		
			<trkpt lat="47.83694" lon="6.83143">
			 <ele>913</ele>
			<time>2015-10-13T05:20:12Z</time>
			</trkpt>
		
			<trkpt lat="47.83685" lon="6.83134">
			 <ele>914</ele>
			<time>2015-10-13T05:22:12Z</time>
			</trkpt>
		
			<trkpt lat="47.83675" lon="6.83127">
			 <ele>915</ele>
			<time>2015-10-13T05:24:12Z</time>
			</trkpt>
		
			<trkpt lat="47.83668" lon="6.83124">
			 <ele>917</ele>
			<time>2015-10-13T05:26:12Z</time>
			</trkpt>
		
			<trkpt lat="47.8366" lon="6.83123">
			 <ele>917</ele>
			<time>2015-10-13T05:28:12Z</time>
			</trkpt>
		
			<trkpt lat="47.83652" lon="6.83124">
			 <ele>917</ele>
			<time>2015-10-13T05:30:12Z</time>
			</trkpt>
		
			<trkpt lat="47.83644" lon="6.83125">
			 <ele>917</ele>
			<time>2015-10-13T05:32:12Z</time>
			</trkpt>
		
			<trkpt lat="47.83635" lon="6.83129">
			 <ele>918</ele>
			<time>2015-10-13T05:34:12Z</time>
			</trkpt>
		
			<trkpt lat="47.83621" lon="6.83137">
			 <ele>920</ele>
			<time>2015-10-13T05:36:12Z</time>
			</trkpt>
		
			<trkpt lat="47.83608" lon="6.83146">
			 <ele>922</ele>
			<time>2015-10-13T05:38:12Z</time>
			</trkpt>
		
			<trkpt lat="47.83599" lon="6.83154">
			 <ele>924</ele>
			<time>2015-10-13T05:40:12Z</time>
			</trkpt>
		
			<trkpt lat="47.83594" lon="6.83159">
			 <ele>926</ele>
			<time>2015-10-13T05:42:12Z</time>
			</trkpt>
		
			<trkpt lat="47.8359" lon="6.83164">
			 <ele>927</ele>
			<time>2015-10-13T05:44:12Z</time>
			</trkpt>
		
			<trkpt lat="47.83588" lon="6.83171">
			 <ele>929</ele>
			<time>2015-10-13T05:46:12Z</time>
			</trkpt>
		
			<trkpt lat="47.83586" lon="6.83176">
			 <ele>930</ele>
			<time>2015-10-13T05:48:12Z</time>
			</trkpt>
		
			<trkpt lat="47.83585" lon="6.83181">
			 <ele>931</ele>
			<time>2015-10-13T05:50:12Z</time>
			</trkpt>
		
			<trkpt lat="47.83588" lon="6.83184">
			 <ele>931</ele>
			<time>2015-10-13T05:52:12Z</time>
			</trkpt>
		
			<trkpt lat="47.83591" lon="6.83186">
			 <ele>931</ele>
			<time>2015-10-13T05:54:12Z</time>
			</trkpt>
		
			<trkpt lat="47.83593" lon="6.83187">
			 <ele>931</ele>
			<time>2015-10-13T05:56:12Z</time>
			</trkpt>
		
			<trkpt lat="47.83599" lon="6.83187">
			 <ele>930</ele>
			<time>2015-10-13T05:58:12Z</time>
			</trkpt>
		
			<trkpt lat="47.83606" lon="6.83187">
			 <ele>930</ele>
			<time>2015-10-13T06:00:12Z</time>
			</trkpt>
		
			<trkpt lat="47.83616" lon="6.83186">
			 <ele>929</ele>
			<time>2015-10-13T06:02:12Z</time>
			</trkpt>
		
			<trkpt lat="47.83623" lon="6.83187">
			 <ele>928</ele>
			<time>2015-10-13T06:04:12Z</time>
			</trkpt>
		
			<trkpt lat="47.83627" lon="6.83188">
			 <ele>928</ele>
			<time>2015-10-13T06:06:12Z</time>
			</trkpt>
		
			<trkpt lat="47.83633" lon="6.83191">
			 <ele>927</ele>
			<time>2015-10-13T06:08:12Z</time>
			</trkpt>
		
			<trkpt lat="47.83637" lon="6.83195">
			 <ele>927</ele>
			<time>2015-10-13T06:10:12Z</time>
			</trkpt>
		
			<trkpt lat="47.8364" lon="6.83199">
			 <ele>927</ele>
			<time>2015-10-13T06:12:12Z</time>
			</trkpt>
		
			<trkpt lat="47.83645" lon="6.83206">
			 <ele>927</ele>
			<time>2015-10-13T06:14:12Z</time>
			</trkpt>
		
			<trkpt lat="47.83648" lon="6.83212">
			 <ele>928</ele>
			<time>2015-10-13T06:16:12Z</time>
			</trkpt>
		
			<trkpt lat="47.8365" lon="6.8322">
			 <ele>928</ele>
			<time>2015-10-13T06:18:12Z</time>
			</trkpt>
		
			<trkpt lat="47.83653" lon="6.8323">
			 <ele>928</ele>
			<time>2015-10-13T06:20:12Z</time>
			</trkpt>
		
			<trkpt lat="47.83655" lon="6.8324">
			 <ele>929</ele>
			<time>2015-10-13T06:22:12Z</time>
			</trkpt>
		
			<trkpt lat="47.83655" lon="6.83251">
			 <ele>930</ele>
			<time>2015-10-13T06:24:12Z</time>
			</trkpt>
		
			<trkpt lat="47.83656" lon="6.83282">
			 <ele>931</ele>
			<time>2015-10-13T06:26:12Z</time>
			</trkpt>
		
			<trkpt lat="47.83656" lon="6.83317">
			 <ele>933</ele>
			<time>2015-10-13T06:28:12Z</time>
			</trkpt>
		
			<trkpt lat="47.83657" lon="6.83338">
			 <ele>933</ele>
			<time>2015-10-13T06:30:12Z</time>
			</trkpt>
		
			<trkpt lat="47.83663" lon="6.834">
			 <ele>934</ele>
			<time>2015-10-13T06:32:12Z</time>
			</trkpt>
		
			<trkpt lat="47.83664" lon="6.8342">
			 <ele>935</ele>
			<time>2015-10-13T06:34:12Z</time>
			</trkpt>
		
			<trkpt lat="47.83665" lon="6.83438">
			 <ele>936</ele>
			<time>2015-10-13T06:36:12Z</time>
			</trkpt>
		
			<trkpt lat="47.83665" lon="6.83447">
			 <ele>936</ele>
			<time>2015-10-13T06:38:12Z</time>
			</trkpt>
		
			<trkpt lat="47.83664" lon="6.8345">
			 <ele>937</ele>
			<time>2015-10-13T06:40:12Z</time>
			</trkpt>
		
			<trkpt lat="47.83663" lon="6.83453">
			 <ele>937</ele>
			<time>2015-10-13T06:42:12Z</time>
			</trkpt>
		
			<trkpt lat="47.83662" lon="6.83458">
			 <ele>938</ele>
			<time>2015-10-13T06:44:12Z</time>
			</trkpt>
		
			<trkpt lat="47.83659" lon="6.83459">
			 <ele>939</ele>
			<time>2015-10-13T06:46:12Z</time>
			</trkpt>
		
			<trkpt lat="47.83655" lon="6.8346">
			 <ele>940</ele>
			<time>2015-10-13T06:48:12Z</time>
			</trkpt>
		
			<trkpt lat="47.83651" lon="6.83458">
			 <ele>942</ele>
			<time>2015-10-13T06:50:12Z</time>
			</trkpt>
		
			<trkpt lat="47.83649" lon="6.83453">
			 <ele>942</ele>
			<time>2015-10-13T06:52:12Z</time>
			</trkpt>
		
			<trkpt lat="47.83646" lon="6.83446">
			 <ele>943</ele>
			<time>2015-10-13T06:54:12Z</time>
			</trkpt>
		
			<trkpt lat="47.83644" lon="6.83437">
			 <ele>943</ele>
			<time>2015-10-13T06:56:12Z</time>
			</trkpt>
		
			<trkpt lat="47.83642" lon="6.83426">
			 <ele>943</ele>
			<time>2015-10-13T06:58:12Z</time>
			</trkpt>
		
			<trkpt lat="47.8364" lon="6.83414">
			 <ele>943</ele>
			<time>2015-10-13T07:00:12Z</time>
			</trkpt>
		
			<trkpt lat="47.83636" lon="6.834">
			 <ele>944</ele>
			<time>2015-10-13T07:02:12Z</time>
			</trkpt>
		
			<trkpt lat="47.83632" lon="6.83385">
			 <ele>944</ele>
			<time>2015-10-13T07:04:12Z</time>
			</trkpt>
		
			<trkpt lat="47.83626" lon="6.83371">
			 <ele>945</ele>
			<time>2015-10-13T07:06:12Z</time>
			</trkpt>
		
			<trkpt lat="47.83621" lon="6.83359">
			 <ele>946</ele>
			<time>2015-10-13T07:08:12Z</time>
			</trkpt>
		
			<trkpt lat="47.83616" lon="6.8335">
			 <ele>947</ele>
			<time>2015-10-13T07:10:12Z</time>
			</trkpt>
		
			<trkpt lat="47.83612" lon="6.83342">
			 <ele>948</ele>
			<time>2015-10-13T07:12:12Z</time>
			</trkpt>
		
			<trkpt lat="47.83606" lon="6.83333">
			 <ele>949</ele>
			<time>2015-10-13T07:14:12Z</time>
			</trkpt>
		
			<trkpt lat="47.83601" lon="6.83328">
			 <ele>950</ele>
			<time>2015-10-13T07:16:12Z</time>
			</trkpt>
		
			<trkpt lat="47.83597" lon="6.83324">
			 <ele>951</ele>
			<time>2015-10-13T07:18:12Z</time>
			</trkpt>
		
			<trkpt lat="47.83593" lon="6.83322">
			 <ele>952</ele>
			<time>2015-10-13T07:20:12Z</time>
			</trkpt>
		
			<trkpt lat="47.83582" lon="6.83316">
			 <ele>954</ele>
			<time>2015-10-13T07:22:12Z</time>
			</trkpt>
		
			<trkpt lat="47.83542" lon="6.83303">
			 <ele>958</ele>
			<time>2015-10-13T07:24:12Z</time>
			</trkpt>
		
			<trkpt lat="47.8352" lon="6.83294">
			 <ele>959</ele>
			<time>2015-10-13T07:26:12Z</time>
			</trkpt>
		
			<trkpt lat="47.8349" lon="6.83283">
			 <ele>961</ele>
			<time>2015-10-13T07:28:12Z</time>
			</trkpt>
		
			<trkpt lat="47.83477" lon="6.83281">
			 <ele>961</ele>
			<time>2015-10-13T07:30:12Z</time>
			</trkpt>
		
			<trkpt lat="47.83459" lon="6.83278">
			 <ele>963</ele>
			<time>2015-10-13T07:32:12Z</time>
			</trkpt>
		
			<trkpt lat="47.8342" lon="6.83274">
			 <ele>966</ele>
			<time>2015-10-13T07:34:12Z</time>
			</trkpt>
		
			<trkpt lat="47.83414" lon="6.83273">
			 <ele>966</ele>
			<time>2015-10-13T07:36:12Z</time>
			</trkpt>
		
			<trkpt lat="47.83408" lon="6.83271">
			 <ele>967</ele>
			<time>2015-10-13T07:38:12Z</time>
			</trkpt>
		
			<trkpt lat="47.83403" lon="6.8327">
			 <ele>968</ele>
			<time>2015-10-13T07:40:12Z</time>
			</trkpt>
		
			<trkpt lat="47.83392" lon="6.83264">
			 <ele>969</ele>
			<time>2015-10-13T07:42:12Z</time>
			</trkpt>
		
			<trkpt lat="47.8338" lon="6.83256">
			 <ele>969</ele>
			<time>2015-10-13T07:44:12Z</time>
			</trkpt>
		
			<trkpt lat="47.83358" lon="6.83239">
			 <ele>970</ele>
			<time>2015-10-13T07:46:12Z</time>
			</trkpt>
		
			<trkpt lat="47.83349" lon="6.83233">
			 <ele>970</ele>
			<time>2015-10-13T07:48:12Z</time>
			</trkpt>
		
			<trkpt lat="47.83341" lon="6.83229">
			 <ele>971</ele>
			<time>2015-10-13T07:50:12Z</time>
			</trkpt>
		
			<trkpt lat="47.83321" lon="6.8322">
			 <ele>972</ele>
			<time>2015-10-13T07:52:12Z</time>
			</trkpt>
		
			<trkpt lat="47.83303" lon="6.83215">
			 <ele>973</ele>
			<time>2015-10-13T07:54:12Z</time>
			</trkpt>
		
			<trkpt lat="47.83293" lon="6.83214">
			 <ele>973</ele>
			<time>2015-10-13T07:56:12Z</time>
			</trkpt>
		
			<trkpt lat="47.83286" lon="6.83214">
			 <ele>974</ele>
			<time>2015-10-13T07:58:12Z</time>
			</trkpt>
		
			<trkpt lat="47.8328" lon="6.83215">
			 <ele>975</ele>
			<time>2015-10-13T08:00:12Z</time>
			</trkpt>
		
			<trkpt lat="47.83273" lon="6.83217">
			 <ele>976</ele>
			<time>2015-10-13T08:02:12Z</time>
			</trkpt>
		
			<trkpt lat="47.83266" lon="6.8322">
			 <ele>977</ele>
			<time>2015-10-13T08:04:12Z</time>
			</trkpt>
		
			<trkpt lat="47.83232" lon="6.8324">
			 <ele>982</ele>
			<time>2015-10-13T08:06:12Z</time>
			</trkpt>
		
			<trkpt lat="47.83221" lon="6.83246">
			 <ele>984</ele>
			<time>2015-10-13T08:08:12Z</time>
			</trkpt>
		
			<trkpt lat="47.8321" lon="6.8325">
			 <ele>984</ele>
			<time>2015-10-13T08:10:12Z</time>
			</trkpt>
		
			<trkpt lat="47.83199" lon="6.83254">
			 <ele>985</ele>
			<time>2015-10-13T08:12:12Z</time>
			</trkpt>
		
			<trkpt lat="47.83171" lon="6.83262">
			 <ele>986</ele>
			<time>2015-10-13T08:14:12Z</time>
			</trkpt>
		
			<trkpt lat="47.83161" lon="6.83264">
			 <ele>985</ele>
			<time>2015-10-13T08:16:12Z</time>
			</trkpt>
		
			<trkpt lat="47.83154" lon="6.83268">
			 <ele>984</ele>
			<time>2015-10-13T08:18:12Z</time>
			</trkpt>
		
			<trkpt lat="47.8315" lon="6.83272">
			 <ele>984</ele>
			<time>2015-10-13T08:20:12Z</time>
			</trkpt>
		
			<trkpt lat="47.83146" lon="6.83277">
			 <ele>984</ele>
			<time>2015-10-13T08:22:12Z</time>
			</trkpt>
		
			<trkpt lat="47.83145" lon="6.83282">
			 <ele>984</ele>
			<time>2015-10-13T08:24:12Z</time>
			</trkpt>
		
			<trkpt lat="47.83145" lon="6.83287">
			 <ele>985</ele>
			<time>2015-10-13T08:26:12Z</time>
			</trkpt>
		
			<trkpt lat="47.83145" lon="6.83291">
			 <ele>985</ele>
			<time>2015-10-13T08:28:12Z</time>
			</trkpt>
		
			<trkpt lat="47.83147" lon="6.83296">
			 <ele>986</ele>
			<time>2015-10-13T08:30:12Z</time>
			</trkpt>
		
			<trkpt lat="47.83149" lon="6.83299">
			 <ele>987</ele>
			<time>2015-10-13T08:32:12Z</time>
			</trkpt>
		
			<trkpt lat="47.83156" lon="6.83301">
			 <ele>989</ele>
			<time>2015-10-13T08:34:12Z</time>
			</trkpt>
		
			<trkpt lat="47.83162" lon="6.83302">
			 <ele>990</ele>
			<time>2015-10-13T08:36:12Z</time>
			</trkpt>
		
			<trkpt lat="47.83168" lon="6.83301">
			 <ele>991</ele>
			<time>2015-10-13T08:38:12Z</time>
			</trkpt>
		
			<trkpt lat="47.83185" lon="6.83301">
			 <ele>993</ele>
			<time>2015-10-13T08:40:12Z</time>
			</trkpt>
		
			<trkpt lat="47.83199" lon="6.83301">
			 <ele>994</ele>
			<time>2015-10-13T08:42:12Z</time>
			</trkpt>
		
			<trkpt lat="47.83214" lon="6.83304">
			 <ele>996</ele>
			<time>2015-10-13T08:44:12Z</time>
			</trkpt>
		
			<trkpt lat="47.8323" lon="6.83308">
			 <ele>998</ele>
			<time>2015-10-13T08:46:12Z</time>
			</trkpt>
		
			<trkpt lat="47.83247" lon="6.83314">
			 <ele>1001</ele>
			<time>2015-10-13T08:48:12Z</time>
			</trkpt>
		
			<trkpt lat="47.83259" lon="6.83321">
			 <ele>1003</ele>
			<time>2015-10-13T08:50:12Z</time>
			</trkpt>
		
			<trkpt lat="47.83273" lon="6.83329">
			 <ele>1004</ele>
			<time>2015-10-13T08:52:12Z</time>
			</trkpt>
		
			<trkpt lat="47.83288" lon="6.83338">
			 <ele>1004</ele>
			<time>2015-10-13T08:54:12Z</time>
			</trkpt>
		
			<trkpt lat="47.8331" lon="6.83352">
			 <ele>1006</ele>
			<time>2015-10-13T08:56:12Z</time>
			</trkpt>
		
			<trkpt lat="47.83326" lon="6.83362">
			 <ele>1007</ele>
			<time>2015-10-13T08:58:12Z</time>
			</trkpt>
		
			<trkpt lat="47.8335" lon="6.83382">
			 <ele>1008</ele>
			<time>2015-10-13T09:00:12Z</time>
			</trkpt>
		
			<trkpt lat="47.8337" lon="6.83399">
			 <ele>1007</ele>
			<time>2015-10-13T09:02:12Z</time>
			</trkpt>
		
			<trkpt lat="47.83382" lon="6.83411">
			 <ele>1008</ele>
			<time>2015-10-13T09:04:12Z</time>
			</trkpt>
		
			<trkpt lat="47.83395" lon="6.83426">
			 <ele>1008</ele>
			<time>2015-10-13T09:06:12Z</time>
			</trkpt>
		
			<trkpt lat="47.83402" lon="6.83435">
			 <ele>1008</ele>
			<time>2015-10-13T09:08:12Z</time>
			</trkpt>
		
			<trkpt lat="47.83408" lon="6.83445">
			 <ele>1009</ele>
			<time>2015-10-13T09:10:12Z</time>
			</trkpt>
		
			<trkpt lat="47.83411" lon="6.83452">
			 <ele>1010</ele>
			<time>2015-10-13T09:12:12Z</time>
			</trkpt>
		
			<trkpt lat="47.83415" lon="6.8346">
			 <ele>1011</ele>
			<time>2015-10-13T09:14:12Z</time>
			</trkpt>
		
			<trkpt lat="47.83419" lon="6.83468">
			 <ele>1012</ele>
			<time>2015-10-13T09:16:12Z</time>
			</trkpt>
		
			<trkpt lat="47.83422" lon="6.83475">
			 <ele>1013</ele>
			<time>2015-10-13T09:18:12Z</time>
			</trkpt>
		
			<trkpt lat="47.83426" lon="6.83487">
			 <ele>1014</ele>
			<time>2015-10-13T09:20:12Z</time>
			</trkpt>
		
			<trkpt lat="47.83429" lon="6.83499">
			 <ele>1016</ele>
			<time>2015-10-13T09:22:12Z</time>
			</trkpt>
		
			<trkpt lat="47.83434" lon="6.83517">
			 <ele>1017</ele>
			<time>2015-10-13T09:24:12Z</time>
			</trkpt>
		
			<trkpt lat="47.83438" lon="6.83538">
			 <ele>1019</ele>
			<time>2015-10-13T09:26:12Z</time>
			</trkpt>
		
			<trkpt lat="47.83441" lon="6.83557">
			 <ele>1021</ele>
			<time>2015-10-13T09:28:12Z</time>
			</trkpt>
		
			<trkpt lat="47.83444" lon="6.83597">
			 <ele>1025</ele>
			<time>2015-10-13T09:30:12Z</time>
			</trkpt>
		
			<trkpt lat="47.83447" lon="6.83626">
			 <ele>1027</ele>
			<time>2015-10-13T09:32:12Z</time>
			</trkpt>
		
			<trkpt lat="47.83449" lon="6.83662">
			 <ele>1029</ele>
			<time>2015-10-13T09:34:12Z</time>
			</trkpt>
		
			<trkpt lat="47.83449" lon="6.83669">
			 <ele>1030</ele>
			<time>2015-10-13T09:36:12Z</time>
			</trkpt>
		
			<trkpt lat="47.8345" lon="6.83684">
			 <ele>1031</ele>
			<time>2015-10-13T09:38:12Z</time>
			</trkpt>
		
			<trkpt lat="47.83452" lon="6.8371">
			 <ele>1032</ele>
			<time>2015-10-13T09:40:12Z</time>
			</trkpt>
		
			<trkpt lat="47.83455" lon="6.83752">
			 <ele>1034</ele>
			<time>2015-10-13T09:42:12Z</time>
			</trkpt>
		
			<trkpt lat="47.83455" lon="6.83778">
			 <ele>1035</ele>
			<time>2015-10-13T09:44:12Z</time>
			</trkpt>
		
			<trkpt lat="47.83456" lon="6.83793">
			 <ele>1036</ele>
			<time>2015-10-13T09:46:12Z</time>
			</trkpt>
		
			<trkpt lat="47.83456" lon="6.8382">
			 <ele>1038</ele>
			<time>2015-10-13T09:48:12Z</time>
			</trkpt>
		
			<trkpt lat="47.83457" lon="6.8386">
			 <ele>1040</ele>
			<time>2015-10-13T09:50:12Z</time>
			</trkpt>
		
			<trkpt lat="47.83458" lon="6.83873">
			 <ele>1041</ele>
			<time>2015-10-13T09:52:12Z</time>
			</trkpt>
		
			<trkpt lat="47.83459" lon="6.83887">
			 <ele>1041</ele>
			<time>2015-10-13T09:54:12Z</time>
			</trkpt>
		
			<trkpt lat="47.83461" lon="6.83911">
			 <ele>1043</ele>
			<time>2015-10-13T09:56:12Z</time>
			</trkpt>
		
			<trkpt lat="47.83464" lon="6.83948">
			 <ele>1043</ele>
			<time>2015-10-13T09:58:12Z</time>
			</trkpt>
		
			<trkpt lat="47.83465" lon="6.83978">
			 <ele>1044</ele>
			<time>2015-10-13T10:00:12Z</time>
			</trkpt>
		
			<trkpt lat="47.83466" lon="6.83992">
			 <ele>1044</ele>
			<time>2015-10-13T10:02:12Z</time>
			</trkpt>
		
			<trkpt lat="47.83467" lon="6.84012">
			 <ele>1044</ele>
			<time>2015-10-13T10:04:12Z</time>
			</trkpt>
		
			<trkpt lat="47.83469" lon="6.84029">
			 <ele>1043</ele>
			<time>2015-10-13T10:06:12Z</time>
			</trkpt>
		
			<trkpt lat="47.83471" lon="6.84045">
			 <ele>1043</ele>
			<time>2015-10-13T10:08:12Z</time>
			</trkpt>
		
			<trkpt lat="47.83472" lon="6.84051">
			 <ele>1042</ele>
			<time>2015-10-13T10:10:12Z</time>
			</trkpt>
		
			<trkpt lat="47.83471" lon="6.84057">
			 <ele>1042</ele>
			<time>2015-10-13T10:12:12Z</time>
			</trkpt>
		
			<trkpt lat="47.8347" lon="6.84063">
			 <ele>1042</ele>
			<time>2015-10-13T10:14:12Z</time>
			</trkpt>
		
			<trkpt lat="47.83468" lon="6.84068">
			 <ele>1042</ele>
			<time>2015-10-13T10:16:12Z</time>
			</trkpt>
		
			<trkpt lat="47.83465" lon="6.84071">
			 <ele>1042</ele>
			<time>2015-10-13T10:18:12Z</time>
			</trkpt>
		
			<trkpt lat="47.83462" lon="6.84073">
			 <ele>1043</ele>
			<time>2015-10-13T10:20:12Z</time>
			</trkpt>
		
			<trkpt lat="47.83458" lon="6.84074">
			 <ele>1043</ele>
			<time>2015-10-13T10:22:12Z</time>
			</trkpt>
		
			<trkpt lat="47.83452" lon="6.84069">
			 <ele>1044</ele>
			<time>2015-10-13T10:24:12Z</time>
			</trkpt>
		
			<trkpt lat="47.8345" lon="6.84067">
			 <ele>1044</ele>
			<time>2015-10-13T10:26:12Z</time>
			</trkpt>
		
			<trkpt lat="47.83449" lon="6.84063">
			 <ele>1044</ele>
			<time>2015-10-13T10:28:12Z</time>
			</trkpt>
		
			<trkpt lat="47.83448" lon="6.8406">
			 <ele>1044</ele>
			<time>2015-10-13T10:30:12Z</time>
			</trkpt>
		
			<trkpt lat="47.83447" lon="6.84055">
			 <ele>1045</ele>
			<time>2015-10-13T10:32:12Z</time>
			</trkpt>
		
			<trkpt lat="47.83446" lon="6.84043">
			 <ele>1045</ele>
			<time>2015-10-13T10:34:12Z</time>
			</trkpt>
		
			<trkpt lat="47.83443" lon="6.84023">
			 <ele>1046</ele>
			<time>2015-10-13T10:36:12Z</time>
			</trkpt>
		
			<trkpt lat="47.83442" lon="6.84016">
			 <ele>1047</ele>
			<time>2015-10-13T10:38:12Z</time>
			</trkpt>
		
			<trkpt lat="47.83437" lon="6.83995">
			 <ele>1048</ele>
			<time>2015-10-13T10:40:12Z</time>
			</trkpt>
		
			<trkpt lat="47.83428" lon="6.83968">
			 <ele>1050</ele>
			<time>2015-10-13T10:42:12Z</time>
			</trkpt>
		
			<trkpt lat="47.83416" lon="6.83934">
			 <ele>1053</ele>
			<time>2015-10-13T10:44:12Z</time>
			</trkpt>
		
			<trkpt lat="47.83405" lon="6.8391">
			 <ele>1054</ele>
			<time>2015-10-13T10:46:12Z</time>
			</trkpt>
		
			<trkpt lat="47.83395" lon="6.83889">
			 <ele>1054</ele>
			<time>2015-10-13T10:48:12Z</time>
			</trkpt>
		
			<trkpt lat="47.83388" lon="6.83877">
			 <ele>1054</ele>
			<time>2015-10-13T10:50:12Z</time>
			</trkpt>
		
			<trkpt lat="47.83381" lon="6.83867">
			 <ele>1054</ele>
			<time>2015-10-13T10:52:12Z</time>
			</trkpt>
		
			<trkpt lat="47.83377" lon="6.83863">
			 <ele>1054</ele>
			<time>2015-10-13T10:54:12Z</time>
			</trkpt>
		
			<trkpt lat="47.83373" lon="6.8386">
			 <ele>1054</ele>
			<time>2015-10-13T10:56:12Z</time>
			</trkpt>
		
			<trkpt lat="47.8337" lon="6.83858">
			 <ele>1055</ele>
			<time>2015-10-13T10:58:12Z</time>
			</trkpt>
		
			<trkpt lat="47.83367" lon="6.83857">
			 <ele>1055</ele>
			<time>2015-10-13T11:00:12Z</time>
			</trkpt>
		
			<trkpt lat="47.83365" lon="6.83857">
			 <ele>1055</ele>
			<time>2015-10-13T11:02:12Z</time>
			</trkpt>
		
			<trkpt lat="47.83361" lon="6.83857">
			 <ele>1055</ele>
			<time>2015-10-13T11:04:12Z</time>
			</trkpt>
		
			<trkpt lat="47.83358" lon="6.83859">
			 <ele>1056</ele>
			<time>2015-10-13T11:06:12Z</time>
			</trkpt>
		
			<trkpt lat="47.83355" lon="6.83861">
			 <ele>1056</ele>
			<time>2015-10-13T11:08:12Z</time>
			</trkpt>
		
			<trkpt lat="47.83353" lon="6.83863">
			 <ele>1057</ele>
			<time>2015-10-13T11:10:12Z</time>
			</trkpt>
		
			<trkpt lat="47.8335" lon="6.83867">
			 <ele>1057</ele>
			<time>2015-10-13T11:12:12Z</time>
			</trkpt>
		
			<trkpt lat="47.83347" lon="6.83874">
			 <ele>1058</ele>
			<time>2015-10-13T11:14:12Z</time>
			</trkpt>
		
			<trkpt lat="47.83346" lon="6.83879">
			 <ele>1058</ele>
			<time>2015-10-13T11:16:12Z</time>
			</trkpt>
		
			<trkpt lat="47.83344" lon="6.83885">
			 <ele>1058</ele>
			<time>2015-10-13T11:18:12Z</time>
			</trkpt>
		
			<trkpt lat="47.83342" lon="6.83898">
			 <ele>1059</ele>
			<time>2015-10-13T11:20:12Z</time>
			</trkpt>
		
			<trkpt lat="47.83341" lon="6.83913">
			 <ele>1060</ele>
			<time>2015-10-13T11:22:12Z</time>
			</trkpt>
		
			<trkpt lat="47.8334" lon="6.83934">
			 <ele>1061</ele>
			<time>2015-10-13T11:24:12Z</time>
			</trkpt>
		
			<trkpt lat="47.83339" lon="6.83956">
			 <ele>1062</ele>
			<time>2015-10-13T11:26:12Z</time>
			</trkpt>
		
			<trkpt lat="47.83337" lon="6.83972">
			 <ele>1062</ele>
			<time>2015-10-13T11:28:12Z</time>
			</trkpt>
		
			<trkpt lat="47.83335" lon="6.83979">
			 <ele>1063</ele>
			<time>2015-10-13T11:30:12Z</time>
			</trkpt>
		
			<trkpt lat="47.83333" lon="6.83986">
			 <ele>1064</ele>
			<time>2015-10-13T11:32:12Z</time>
			</trkpt>
		
			<trkpt lat="47.8333" lon="6.83992">
			 <ele>1064</ele>
			<time>2015-10-13T11:34:12Z</time>
			</trkpt>
		
			<trkpt lat="47.83321" lon="6.84009">
			 <ele>1064</ele>
			<time>2015-10-13T11:36:12Z</time>
			</trkpt>
		
			<trkpt lat="47.83311" lon="6.84017">
			 <ele>1065</ele>
			<time>2015-10-13T11:38:12Z</time>
			</trkpt>
		
			<trkpt lat="47.83308" lon="6.84019">
			 <ele>1065</ele>
			<time>2015-10-13T11:40:12Z</time>
			</trkpt>
		
			<trkpt lat="47.83306" lon="6.8402">
			 <ele>1065</ele>
			<time>2015-10-13T11:42:12Z</time>
			</trkpt>
		
			<trkpt lat="47.83301" lon="6.84023">
			 <ele>1066</ele>
			<time>2015-10-13T11:44:12Z</time>
			</trkpt>
		
			<trkpt lat="47.83296" lon="6.84024">
			 <ele>1066</ele>
			<time>2015-10-13T11:46:12Z</time>
			</trkpt>
		
			<trkpt lat="47.83292" lon="6.84025">
			 <ele>1066</ele>
			<time>2015-10-13T11:48:12Z</time>
			</trkpt>
		
			<trkpt lat="47.83286" lon="6.84025">
			 <ele>1067</ele>
			<time>2015-10-13T11:50:12Z</time>
			</trkpt>
		
			<trkpt lat="47.83281" lon="6.84025">
			 <ele>1067</ele>
			<time>2015-10-13T11:52:12Z</time>
			</trkpt>
		
			<trkpt lat="47.83275" lon="6.84024">
			 <ele>1068</ele>
			<time>2015-10-13T11:54:12Z</time>
			</trkpt>
		
			<trkpt lat="47.83269" lon="6.84023">
			 <ele>1069</ele>
			<time>2015-10-13T11:56:12Z</time>
			</trkpt>
		
			<trkpt lat="47.83263" lon="6.84022">
			 <ele>1069</ele>
			<time>2015-10-13T11:58:12Z</time>
			</trkpt>
		
			<trkpt lat="47.83253" lon="6.8402">
			 <ele>1070</ele>
			<time>2015-10-13T12:00:12Z</time>
			</trkpt>
		
			<trkpt lat="47.83243" lon="6.84014">
			 <ele>1071</ele>
			<time>2015-10-13T12:02:12Z</time>
			</trkpt>
		
			<trkpt lat="47.83237" lon="6.84011">
			 <ele>1072</ele>
			<time>2015-10-13T12:04:12Z</time>
			</trkpt>
		
			<trkpt lat="47.8323" lon="6.84006">
			 <ele>1072</ele>
			<time>2015-10-13T12:06:12Z</time>
			</trkpt>
		
			<trkpt lat="47.83201" lon="6.83988">
			 <ele>1074</ele>
			<time>2015-10-13T12:08:12Z</time>
			</trkpt>
		
			<trkpt lat="47.83194" lon="6.83983">
			 <ele>1074</ele>
			<time>2015-10-13T12:10:12Z</time>
			</trkpt>
		
			<trkpt lat="47.83185" lon="6.83979">
			 <ele>1074</ele>
			<time>2015-10-13T12:12:12Z</time>
			</trkpt>
		
			<trkpt lat="47.8318" lon="6.83977">
			 <ele>1075</ele>
			<time>2015-10-13T12:14:12Z</time>
			</trkpt>
		
			<trkpt lat="47.83168" lon="6.8397">
			 <ele>1075</ele>
			<time>2015-10-13T12:16:12Z</time>
			</trkpt>
		
			<trkpt lat="47.83142" lon="6.83959">
			 <ele>1078</ele>
			<time>2015-10-13T12:18:12Z</time>
			</trkpt>
		
			<trkpt lat="47.83116" lon="6.83948">
			 <ele>1080</ele>
			<time>2015-10-13T12:20:12Z</time>
			</trkpt>
		
			<trkpt lat="47.83098" lon="6.83942">
			 <ele>1082</ele>
			<time>2015-10-13T12:22:12Z</time>
			</trkpt>
		
			<trkpt lat="47.83071" lon="6.8393">
			 <ele>1085</ele>
			<time>2015-10-13T12:24:12Z</time>
			</trkpt>
		
			<trkpt lat="47.83055" lon="6.8392">
			 <ele>1088</ele>
			<time>2015-10-13T12:26:12Z</time>
			</trkpt>
		
			<trkpt lat="47.83046" lon="6.83913">
			 <ele>1089</ele>
			<time>2015-10-13T12:28:12Z</time>
			</trkpt>
		
			<trkpt lat="47.83022" lon="6.83892">
			 <ele>1092</ele>
			<time>2015-10-13T12:30:12Z</time>
			</trkpt>
		
			<trkpt lat="47.83008" lon="6.83879">
			 <ele>1094</ele>
			<time>2015-10-13T12:32:12Z</time>
			</trkpt>
		
			<trkpt lat="47.83" lon="6.83867">
			 <ele>1094</ele>
			<time>2015-10-13T12:34:12Z</time>
			</trkpt>
		
			<trkpt lat="47.82985" lon="6.83851">
			 <ele>1097</ele>
			<time>2015-10-13T12:36:12Z</time>
			</trkpt>
		
			<trkpt lat="47.82958" lon="6.83821">
			 <ele>1100</ele>
			<time>2015-10-13T12:38:12Z</time>
			</trkpt>
		
			<trkpt lat="47.8293" lon="6.83795">
			 <ele>1105</ele>
			<time>2015-10-13T12:40:12Z</time>
			</trkpt>
		
			<trkpt lat="47.82901" lon="6.83773">
			 <ele>1109</ele>
			<time>2015-10-13T12:42:12Z</time>
			</trkpt>
		
			<trkpt lat="47.82894" lon="6.83768">
			 <ele>1110</ele>
			<time>2015-10-13T12:44:12Z</time>
			</trkpt>
		
			<trkpt lat="47.82887" lon="6.83762">
			 <ele>1111</ele>
			<time>2015-10-13T12:46:12Z</time>
			</trkpt>
		
			<trkpt lat="47.82879" lon="6.83758">
			 <ele>1112</ele>
			<time>2015-10-13T12:48:12Z</time>
			</trkpt>
		
			<trkpt lat="47.82871" lon="6.83753">
			 <ele>1113</ele>
			<time>2015-10-13T12:50:12Z</time>
			</trkpt>
		
			<trkpt lat="47.82856" lon="6.83744">
			 <ele>1114</ele>
			<time>2015-10-13T12:52:12Z</time>
			</trkpt>
		
			<trkpt lat="47.82823" lon="6.83727">
			 <ele>1118</ele>
			<time>2015-10-13T12:54:12Z</time>
			</trkpt>
		
			<trkpt lat="47.82808" lon="6.83719">
			 <ele>1119</ele>
			<time>2015-10-13T12:56:12Z</time>
			</trkpt>
		
			<trkpt lat="47.82793" lon="6.83708">
			 <ele>1121</ele>
			<time>2015-10-13T12:58:12Z</time>
			</trkpt>
		
			<trkpt lat="47.82788" lon="6.83704">
			 <ele>1121</ele>
			<time>2015-10-13T13:00:12Z</time>
			</trkpt>
		
			<trkpt lat="47.82777" lon="6.83695">
			 <ele>1122</ele>
			<time>2015-10-13T13:02:12Z</time>
			</trkpt>
		
			<trkpt lat="47.82767" lon="6.83687">
			 <ele>1123</ele>
			<time>2015-10-13T13:04:12Z</time>
			</trkpt>
		
			<trkpt lat="47.82724" lon="6.83642">
			 <ele>1127</ele>
			<time>2015-10-13T13:06:12Z</time>
			</trkpt>
		
			<trkpt lat="47.82669" lon="6.83592">
			 <ele>1132</ele>
			<time>2015-10-13T13:08:12Z</time>
			</trkpt>
		
			<trkpt lat="47.82633" lon="6.83561">
			 <ele>1135</ele>
			<time>2015-10-13T13:10:12Z</time>
			</trkpt>
		
			<trkpt lat="47.82608" lon="6.83541">
			 <ele>1136</ele>
			<time>2015-10-13T13:12:12Z</time>
			</trkpt>
		
			<trkpt lat="47.82594" lon="6.8353">
			 <ele>1137</ele>
			<time>2015-10-13T13:14:12Z</time>
			</trkpt>
		
			<trkpt lat="47.82573" lon="6.83515">
			 <ele>1138</ele>
			<time>2015-10-13T13:16:12Z</time>
			</trkpt>
		
			<trkpt lat="47.82558" lon="6.83507">
			 <ele>1139</ele>
			<time>2015-10-13T13:18:12Z</time>
			</trkpt>
		
			<trkpt lat="47.82544" lon="6.83501">
			 <ele>1140</ele>
			<time>2015-10-13T13:20:12Z</time>
			</trkpt>
		
			<trkpt lat="47.82522" lon="6.83494">
			 <ele>1142</ele>
			<time>2015-10-13T13:22:12Z</time>
			</trkpt>
		
			<trkpt lat="47.82506" lon="6.8349">
			 <ele>1143</ele>
			<time>2015-10-13T13:24:12Z</time>
			</trkpt>
		
			<trkpt lat="47.82498" lon="6.83489">
			 <ele>1144</ele>
			<time>2015-10-13T13:26:12Z</time>
			</trkpt>
		
			<trkpt lat="47.82474" lon="6.83488">
			 <ele>1146</ele>
			<time>2015-10-13T13:28:12Z</time>
			</trkpt>
		
			<trkpt lat="47.82458" lon="6.83489">
			 <ele>1148</ele>
			<time>2015-10-13T13:30:12Z</time>
			</trkpt>
		
			<trkpt lat="47.82433" lon="6.83489">
			 <ele>1150</ele>
			<time>2015-10-13T13:32:12Z</time>
			</trkpt>
		
			<trkpt lat="47.82407" lon="6.83487">
			 <ele>1152</ele>
			<time>2015-10-13T13:34:12Z</time>
			</trkpt>
		
			<trkpt lat="47.82386" lon="6.83484">
			 <ele>1154</ele>
			<time>2015-10-13T13:36:12Z</time>
			</trkpt>
		
			<trkpt lat="47.82361" lon="6.8348">
			 <ele>1155</ele>
			<time>2015-10-13T13:38:12Z</time>
			</trkpt>
		
			<trkpt lat="47.82328" lon="6.83472">
			 <ele>1157</ele>
			<time>2015-10-13T13:40:12Z</time>
			</trkpt>
		
			<trkpt lat="47.82292" lon="6.83463">
			 <ele>1160</ele>
			<time>2015-10-13T13:42:12Z</time>
			</trkpt>
		
			<trkpt lat="47.82264" lon="6.83456">
			 <ele>1162</ele>
			<time>2015-10-13T13:44:12Z</time>
			</trkpt>
		
			<trkpt lat="47.82237" lon="6.8345">
			 <ele>1164</ele>
			<time>2015-10-13T13:46:12Z</time>
			</trkpt>
		
			<trkpt lat="47.82212" lon="6.83448">
			 <ele>1165</ele>
			<time>2015-10-13T13:48:12Z</time>
			</trkpt>
		
			<trkpt lat="47.8219" lon="6.83444">
			 <ele>1166</ele>
			<time>2015-10-13T13:50:12Z</time>
			</trkpt>
		
			<trkpt lat="47.82185" lon="6.83442">
			 <ele>1167</ele>
			<time>2015-10-13T13:52:12Z</time>
			</trkpt>
		
			<trkpt lat="47.82176" lon="6.83438">
			 <ele>1167</ele>
			<time>2015-10-13T13:54:12Z</time>
			</trkpt>
		
			<trkpt lat="47.8216" lon="6.83431">
			 <ele>1167</ele>
			<time>2015-10-13T13:56:12Z</time>
			</trkpt>
		
			<trkpt lat="47.82152" lon="6.83428">
			 <ele>1167</ele>
			<time>2015-10-13T13:58:12Z</time>
			</trkpt>
		
			<trkpt lat="47.82145" lon="6.83426">
			 <ele>1167</ele>
			<time>2015-10-13T14:00:12Z</time>
			</trkpt>
		
			<trkpt lat="47.82138" lon="6.83425">
			 <ele>1167</ele>
			<time>2015-10-13T14:02:12Z</time>
			</trkpt>
		
			<trkpt lat="47.82131" lon="6.83426">
			 <ele>1168</ele>
			<time>2015-10-13T14:04:12Z</time>
			</trkpt>
		
			<trkpt lat="47.82127" lon="6.83427">
			 <ele>1168</ele>
			<time>2015-10-13T14:06:12Z</time>
			</trkpt>
		
				</trkseg>
			   </trk>
			 </gpx>
	